<?xml version="1.0" encoding="UTF-8" standalone="no" ?>
<gpx xmlns="http://www.topografix.com/GPX/1/1" xmlns:xsi="http://www.w3.org/2001/XMLSchema-instance" xsi:schemaLocation="http://www.topografix.com/GPX/1/1 http://www.topografix.com/GPX/1/1/gpx.xsd" version="1.1" creator="VisuGPX - https://www.visugpx.com">
  <metadata>
    <name>joanetes- El barret</name>
    <desc><![CDATA[Joanetes- El Barret---------------------------]]></desc>
  </metadata>
  <trk>
    <name><![CDATA[Move]]></name>
    <trkseg>
      <trkpt lat="42.12123" lon="2.41884">
        <ele>613.70001220703</ele>
        <time>2019-01-24T07:48:09.000Z</time>
      </trkpt>
      <trkpt lat="42.12125" lon="2.4188">
        <ele>602.7</ele>
        <time>2019-01-24T07:48:13.000Z</time>
      </trkpt>
      <trkpt lat="42.12125" lon="2.41876">
        <ele>602.3</ele>
        <time>2019-01-24T07:48:16.000Z</time>
      </trkpt>
      <trkpt lat="42.12125" lon="2.41872">
        <ele>602</ele>
        <time>2019-01-24T07:48:18.000Z</time>
      </trkpt>
      <trkpt lat="42.12124" lon="2.41868">
        <ele>618</ele>
        <time>2019-01-24T07:48:20.000Z</time>
      </trkpt>
      <trkpt lat="42.12124" lon="2.41865">
        <ele>618</ele>
        <time>2019-01-24T07:48:22.000Z</time>
      </trkpt>
      <trkpt lat="42.12123" lon="2.41861">
        <ele>618</ele>
        <time>2019-01-24T07:48:24.000Z</time>
      </trkpt>
      <trkpt lat="42.12123" lon="2.41857">
        <ele>618</ele>
        <time>2019-01-24T07:48:26.000Z</time>
      </trkpt>
      <trkpt lat="42.12123" lon="2.41853">
        <ele>618</ele>
        <time>2019-01-24T07:48:28.000Z</time>
      </trkpt>
      <trkpt lat="42.12123" lon="2.41848">
        <ele>618</ele>
        <time>2019-01-24T07:48:30.000Z</time>
      </trkpt>
      <trkpt lat="42.12122" lon="2.41844">
        <ele>618</ele>
        <time>2019-01-24T07:48:32.000Z</time>
      </trkpt>
      <trkpt lat="42.12122" lon="2.4184">
        <ele>618</ele>
        <time>2019-01-24T07:48:34.000Z</time>
      </trkpt>
      <trkpt lat="42.12122" lon="2.41836">
        <ele>618</ele>
        <time>2019-01-24T07:48:36.000Z</time>
      </trkpt>
      <trkpt lat="42.12123" lon="2.41832">
        <ele>618</ele>
        <time>2019-01-24T07:48:38.000Z</time>
      </trkpt>
      <trkpt lat="42.12123" lon="2.41828">
        <ele>618</ele>
        <time>2019-01-24T07:48:40.000Z</time>
      </trkpt>
      <trkpt lat="42.12124" lon="2.41825">
        <ele>618</ele>
        <time>2019-01-24T07:48:42.000Z</time>
      </trkpt>
      <trkpt lat="42.12125" lon="2.41821">
        <ele>618</ele>
        <time>2019-01-24T07:48:44.000Z</time>
      </trkpt>
      <trkpt lat="42.12126" lon="2.41818">
        <ele>618</ele>
        <time>2019-01-24T07:48:46.000Z</time>
      </trkpt>
      <trkpt lat="42.12127" lon="2.41814">
        <ele>618</ele>
        <time>2019-01-24T07:48:48.000Z</time>
      </trkpt>
      <trkpt lat="42.12128" lon="2.41811">
        <ele>618</ele>
        <time>2019-01-24T07:48:50.000Z</time>
      </trkpt>
      <trkpt lat="42.12129" lon="2.41808">
        <ele>618</ele>
        <time>2019-01-24T07:48:52.000Z</time>
      </trkpt>
      <trkpt lat="42.1213" lon="2.41805">
        <ele>618</ele>
        <time>2019-01-24T07:48:54.000Z</time>
      </trkpt>
      <trkpt lat="42.12132" lon="2.41803">
        <ele>618</ele>
        <time>2019-01-24T07:48:56.000Z</time>
      </trkpt>
      <trkpt lat="42.12133" lon="2.41801">
        <ele>618</ele>
        <time>2019-01-24T07:48:58.000Z</time>
      </trkpt>
      <trkpt lat="42.12134" lon="2.41798">
        <ele>618</ele>
        <time>2019-01-24T07:49:00.000Z</time>
      </trkpt>
      <trkpt lat="42.12135" lon="2.41795">
        <ele>618</ele>
        <time>2019-01-24T07:49:02.000Z</time>
      </trkpt>
      <trkpt lat="42.12136" lon="2.41793">
        <ele>618</ele>
        <time>2019-01-24T07:49:04.000Z</time>
      </trkpt>
      <trkpt lat="42.12137" lon="2.4179">
        <ele>618</ele>
        <time>2019-01-24T07:49:06.000Z</time>
      </trkpt>
      <trkpt lat="42.12138" lon="2.41788">
        <ele>618</ele>
        <time>2019-01-24T07:49:08.000Z</time>
      </trkpt>
      <trkpt lat="42.12139" lon="2.41785">
        <ele>618</ele>
        <time>2019-01-24T07:49:10.000Z</time>
      </trkpt>
      <trkpt lat="42.1214" lon="2.41782">
        <ele>618</ele>
        <time>2019-01-24T07:49:12.000Z</time>
      </trkpt>
      <trkpt lat="42.12141" lon="2.4178">
        <ele>618</ele>
        <time>2019-01-24T07:49:14.000Z</time>
      </trkpt>
      <trkpt lat="42.12142" lon="2.41777">
        <ele>618</ele>
        <time>2019-01-24T07:49:16.000Z</time>
      </trkpt>
      <trkpt lat="42.12143" lon="2.41775">
        <ele>618</ele>
        <time>2019-01-24T07:49:18.000Z</time>
      </trkpt>
      <trkpt lat="42.12142" lon="2.41772">
        <ele>618</ele>
        <time>2019-01-24T07:49:20.000Z</time>
      </trkpt>
      <trkpt lat="42.12142" lon="2.41769">
        <ele>618</ele>
        <time>2019-01-24T07:49:22.000Z</time>
      </trkpt>
      <trkpt lat="42.12141" lon="2.41766">
        <ele>618</ele>
        <time>2019-01-24T07:49:24.000Z</time>
      </trkpt>
      <trkpt lat="42.12139" lon="2.41763">
        <ele>618</ele>
        <time>2019-01-24T07:49:26.000Z</time>
      </trkpt>
      <trkpt lat="42.12138" lon="2.4176">
        <ele>618</ele>
        <time>2019-01-24T07:49:28.000Z</time>
      </trkpt>
      <trkpt lat="42.12137" lon="2.41757">
        <ele>619.12789563034</ele>
        <time>2019-01-24T07:49:30.000Z</time>
      </trkpt>
      <trkpt lat="42.12135" lon="2.41753">
        <ele>620.53776516826</ele>
        <time>2019-01-24T07:49:32.000Z</time>
      </trkpt>
      <trkpt lat="42.12134" lon="2.41749">
        <ele>622.65256947515</ele>
        <time>2019-01-24T07:49:35.000Z</time>
      </trkpt>
      <trkpt lat="42.12133" lon="2.41745">
        <ele>624.06243901307</ele>
        <time>2019-01-24T07:49:37.000Z</time>
      </trkpt>
      <trkpt lat="42.12131" lon="2.41742">
        <ele>625</ele>
        <time>2019-01-24T07:49:39.000Z</time>
      </trkpt>
      <trkpt lat="42.1213" lon="2.41739">
        <ele>625</ele>
        <time>2019-01-24T07:49:41.000Z</time>
      </trkpt>
      <trkpt lat="42.12129" lon="2.41736">
        <ele>625</ele>
        <time>2019-01-24T07:49:43.000Z</time>
      </trkpt>
      <trkpt lat="42.12128" lon="2.41733">
        <ele>625</ele>
        <time>2019-01-24T07:49:45.000Z</time>
      </trkpt>
      <trkpt lat="42.12127" lon="2.41729">
        <ele>625</ele>
        <time>2019-01-24T07:49:47.000Z</time>
      </trkpt>
      <trkpt lat="42.12126" lon="2.41726">
        <ele>625</ele>
        <time>2019-01-24T07:49:49.000Z</time>
      </trkpt>
      <trkpt lat="42.12125" lon="2.41722">
        <ele>625</ele>
        <time>2019-01-24T07:49:51.000Z</time>
      </trkpt>
      <trkpt lat="42.12125" lon="2.41719">
        <ele>625</ele>
        <time>2019-01-24T07:49:53.000Z</time>
      </trkpt>
      <trkpt lat="42.12125" lon="2.41715">
        <ele>625</ele>
        <time>2019-01-24T07:49:55.000Z</time>
      </trkpt>
      <trkpt lat="42.12127" lon="2.41712">
        <ele>625</ele>
        <time>2019-01-24T07:49:57.000Z</time>
      </trkpt>
      <trkpt lat="42.12128" lon="2.4171">
        <ele>625.06155364309</ele>
        <time>2019-01-24T07:49:59.000Z</time>
      </trkpt>
      <trkpt lat="42.12129" lon="2.41707">
        <ele>625.26336992505</ele>
        <time>2019-01-24T07:50:01.000Z</time>
      </trkpt>
      <trkpt lat="42.1213" lon="2.41705">
        <ele>625.465186207</ele>
        <time>2019-01-24T07:50:03.000Z</time>
      </trkpt>
      <trkpt lat="42.12131" lon="2.41702">
        <ele>625.66700248896</ele>
        <time>2019-01-24T07:50:05.000Z</time>
      </trkpt>
      <trkpt lat="42.12132" lon="2.41699">
        <ele>625.86881877092</ele>
        <time>2019-01-24T07:50:07.000Z</time>
      </trkpt>
      <trkpt lat="42.12132" lon="2.41696">
        <ele>626.14027936852</ele>
        <time>2019-01-24T07:50:09.000Z</time>
      </trkpt>
      <trkpt lat="42.12133" lon="2.41694">
        <ele>626.54108122875</ele>
        <time>2019-01-24T07:50:11.000Z</time>
      </trkpt>
      <trkpt lat="42.12133" lon="2.41691">
        <ele>626.94188308898</ele>
        <time>2019-01-24T07:50:13.000Z</time>
      </trkpt>
      <trkpt lat="42.12134" lon="2.41688">
        <ele>627.34268494922</ele>
        <time>2019-01-24T07:50:15.000Z</time>
      </trkpt>
      <trkpt lat="42.12135" lon="2.41685">
        <ele>627.74348680945</ele>
        <time>2019-01-24T07:50:17.000Z</time>
      </trkpt>
      <trkpt lat="42.12136" lon="2.41681">
        <ele>628.216</ele>
        <time>2019-01-24T07:50:19.000Z</time>
      </trkpt>
      <trkpt lat="42.12138" lon="2.41678">
        <ele>628.816</ele>
        <time>2019-01-24T07:50:21.000Z</time>
      </trkpt>
      <trkpt lat="42.1214" lon="2.41676">
        <ele>629.416</ele>
        <time>2019-01-24T07:50:23.000Z</time>
      </trkpt>
      <trkpt lat="42.12142" lon="2.41673">
        <ele>630.016</ele>
        <time>2019-01-24T07:50:25.000Z</time>
      </trkpt>
      <trkpt lat="42.12143" lon="2.4167">
        <ele>630.616</ele>
        <time>2019-01-24T07:50:27.000Z</time>
      </trkpt>
      <trkpt lat="42.12144" lon="2.41667">
        <ele>631.216</ele>
        <time>2019-01-24T07:50:29.000Z</time>
      </trkpt>
      <trkpt lat="42.12144" lon="2.41664">
        <ele>631.816</ele>
        <time>2019-01-24T07:50:31.000Z</time>
      </trkpt>
      <trkpt lat="42.12144" lon="2.41661">
        <ele>632.416</ele>
        <time>2019-01-24T07:50:33.000Z</time>
      </trkpt>
      <trkpt lat="42.12143" lon="2.41657">
        <ele>633.016</ele>
        <time>2019-01-24T07:50:35.000Z</time>
      </trkpt>
      <trkpt lat="42.12143" lon="2.41654">
        <ele>633.616</ele>
        <time>2019-01-24T07:50:37.000Z</time>
      </trkpt>
      <trkpt lat="42.12142" lon="2.41651">
        <ele>634</ele>
        <time>2019-01-24T07:50:39.000Z</time>
      </trkpt>
      <trkpt lat="42.12141" lon="2.41647">
        <ele>634</ele>
        <time>2019-01-24T07:50:41.000Z</time>
      </trkpt>
      <trkpt lat="42.1214" lon="2.41644">
        <ele>634</ele>
        <time>2019-01-24T07:50:43.000Z</time>
      </trkpt>
      <trkpt lat="42.1214" lon="2.41641">
        <ele>634</ele>
        <time>2019-01-24T07:50:45.000Z</time>
      </trkpt>
      <trkpt lat="42.12139" lon="2.41637">
        <ele>634</ele>
        <time>2019-01-24T07:50:47.000Z</time>
      </trkpt>
      <trkpt lat="42.12138" lon="2.41633">
        <ele>634.03131459295</ele>
        <time>2019-01-24T07:50:49.000Z</time>
      </trkpt>
      <trkpt lat="42.12137" lon="2.41629">
        <ele>634.24008299964</ele>
        <time>2019-01-24T07:50:51.000Z</time>
      </trkpt>
      <trkpt lat="42.12137" lon="2.41625">
        <ele>634.44885140633</ele>
        <time>2019-01-24T07:50:53.000Z</time>
      </trkpt>
      <trkpt lat="42.12136" lon="2.41622">
        <ele>634.65761981302</ele>
        <time>2019-01-24T07:50:55.000Z</time>
      </trkpt>
      <trkpt lat="42.12135" lon="2.41618">
        <ele>634.86638821972</ele>
        <time>2019-01-24T07:50:57.000Z</time>
      </trkpt>
      <trkpt lat="42.12136" lon="2.41615">
        <ele>635.072</ele>
        <time>2019-01-24T07:50:59.000Z</time>
      </trkpt>
      <trkpt lat="42.12137" lon="2.41613">
        <ele>635.272</ele>
        <time>2019-01-24T07:51:01.000Z</time>
      </trkpt>
      <trkpt lat="42.12146" lon="2.41605">
        <ele>635.97100032</ele>
        <time>2019-01-24T07:51:07.990Z</time>
      </trkpt>
      <trkpt lat="42.12154" lon="2.41599">
        <ele>637.34419968</ele>
        <time>2019-01-24T07:51:15.001Z</time>
      </trkpt>
      <trkpt lat="42.12163" lon="2.41593">
        <ele>639</ele>
        <time>2019-01-24T07:51:36.991Z</time>
      </trkpt>
      <trkpt lat="42.1217" lon="2.41585">
        <ele>639.86618290456</ele>
        <time>2019-01-24T07:51:46.990Z</time>
      </trkpt>
      <trkpt lat="42.12178" lon="2.41578">
        <ele>641.94139904</ele>
        <time>2019-01-24T07:51:57.987Z</time>
      </trkpt>
      <trkpt lat="42.12187" lon="2.41573">
        <ele>643.544</ele>
        <time>2019-01-24T07:52:06.000Z</time>
      </trkpt>
      <trkpt lat="42.12195" lon="2.4157">
        <ele>645.74160128</ele>
        <time>2019-01-24T07:52:16.988Z</time>
      </trkpt>
      <trkpt lat="42.12206" lon="2.41568">
        <ele>652.28344968355</ele>
        <time>2019-01-24T07:52:36.000Z</time>
      </trkpt>
      <trkpt lat="42.12215" lon="2.41561">
        <ele>654.05857740586</ele>
        <time>2019-01-24T07:52:49.000Z</time>
      </trkpt>
      <trkpt lat="42.12222" lon="2.4155">
        <ele>660.032</ele>
        <time>2019-01-24T07:53:05.000Z</time>
      </trkpt>
      <trkpt lat="42.12232" lon="2.41549">
        <ele>662.272</ele>
        <time>2019-01-24T07:53:21.000Z</time>
      </trkpt>
      <trkpt lat="42.12239" lon="2.41542">
        <ele>664.116</ele>
        <time>2019-01-24T07:53:32.000Z</time>
      </trkpt>
      <trkpt lat="42.12247" lon="2.41547">
        <ele>666</ele>
        <time>2019-01-24T07:53:48.000Z</time>
      </trkpt>
      <trkpt lat="42.12258" lon="2.41548">
        <ele>667.344</ele>
        <time>2019-01-24T07:53:55.000Z</time>
      </trkpt>
      <trkpt lat="42.12266" lon="2.41545">
        <ele>669.144</ele>
        <time>2019-01-24T07:54:04.000Z</time>
      </trkpt>
      <trkpt lat="42.12275" lon="2.41541">
        <ele>670.944</ele>
        <time>2019-01-24T07:54:13.000Z</time>
      </trkpt>
      <trkpt lat="42.12282" lon="2.41532">
        <ele>674.016</ele>
        <time>2019-01-24T07:54:25.000Z</time>
      </trkpt>
      <trkpt lat="42.12289" lon="2.41523">
        <ele>676.544</ele>
        <time>2019-01-24T07:54:36.000Z</time>
      </trkpt>
      <trkpt lat="42.12294" lon="2.41512">
        <ele>677.96428571429</ele>
        <time>2019-01-24T07:54:48.000Z</time>
      </trkpt>
      <trkpt lat="42.1229" lon="2.41501">
        <ele>679.13508129032</ele>
        <time>2019-01-24T07:54:53.990Z</time>
      </trkpt>
      <trkpt lat="42.12294" lon="2.41491">
        <ele>680</ele>
        <time>2019-01-24T07:55:02.987Z</time>
      </trkpt>
      <trkpt lat="42.12284" lon="2.41489">
        <ele>681.74119936</ele>
        <time>2019-01-24T07:56:46.986Z</time>
      </trkpt>
      <trkpt lat="42.12285" lon="2.41476">
        <ele>683.52943683788</ele>
        <time>2019-01-24T07:56:55.996Z</time>
      </trkpt>
      <trkpt lat="42.12288" lon="2.41464">
        <ele>685</ele>
        <time>2019-01-24T07:57:08.987Z</time>
      </trkpt>
      <trkpt lat="42.12288" lon="2.41452">
        <ele>684</ele>
        <time>2019-01-24T07:57:46.987Z</time>
      </trkpt>
      <trkpt lat="42.12293" lon="2.4144">
        <ele>684</ele>
        <time>2019-01-24T07:58:03.000Z</time>
      </trkpt>
      <trkpt lat="42.12295" lon="2.41428">
        <ele>684.54200064</ele>
        <time>2019-01-24T07:58:10.990Z</time>
      </trkpt>
      <trkpt lat="42.12303" lon="2.41421">
        <ele>687.08400128</ele>
        <time>2019-01-24T07:58:20.990Z</time>
      </trkpt>
      <trkpt lat="42.1231" lon="2.41412">
        <ele>690.14200064</ele>
        <time>2019-01-24T07:58:28.990Z</time>
      </trkpt>
      <trkpt lat="42.12315" lon="2.41402">
        <ele>691.74380032</ele>
        <time>2019-01-24T07:58:36.999Z</time>
      </trkpt>
      <trkpt lat="42.12322" lon="2.41393">
        <ele>693.54200064</ele>
        <time>2019-01-24T07:58:45.990Z</time>
      </trkpt>
      <trkpt lat="42.12331" lon="2.41387">
        <ele>694.86766196781</ele>
        <time>2019-01-24T07:58:57.000Z</time>
      </trkpt>
      <trkpt lat="42.12338" lon="2.41379">
        <ele>697.9155779166</ele>
        <time>2019-01-24T07:59:08.000Z</time>
      </trkpt>
      <trkpt lat="42.12347" lon="2.41376">
        <ele>699.30739299611</ele>
        <time>2019-01-24T07:59:19.002Z</time>
      </trkpt>
      <trkpt lat="42.12355" lon="2.4137">
        <ele>704.07261477178</ele>
        <time>2019-01-24T07:59:29.000Z</time>
      </trkpt>
      <trkpt lat="42.12361" lon="2.41361">
        <ele>706</ele>
        <time>2019-01-24T07:59:49.986Z</time>
      </trkpt>
      <trkpt lat="42.12366" lon="2.4135">
        <ele>708.29819759036</ele>
        <time>2019-01-24T08:00:02.988Z</time>
      </trkpt>
      <trkpt lat="42.12374" lon="2.41346">
        <ele>716.14314341761</ele>
        <time>2019-01-24T08:00:24.000Z</time>
      </trkpt>
      <trkpt lat="42.12384" lon="2.41342">
        <ele>718.56400128</ele>
        <time>2019-01-24T08:00:41.100Z</time>
      </trkpt>
      <trkpt lat="42.12391" lon="2.41333">
        <ele>720.572</ele>
        <time>2019-01-24T08:00:54.000Z</time>
      </trkpt>
      <trkpt lat="42.12401" lon="2.41333">
        <ele>721.75760525767</ele>
        <time>2019-01-24T08:01:06.000Z</time>
      </trkpt>
      <trkpt lat="42.1241" lon="2.41336">
        <ele>727.01501533053</ele>
        <time>2019-01-24T08:01:25.000Z</time>
      </trkpt>
      <trkpt lat="42.12413" lon="2.41324">
        <ele>732.14139904</ele>
        <time>2019-01-24T08:01:53.987Z</time>
      </trkpt>
      <trkpt lat="42.12421" lon="2.41318">
        <ele>737.2842854745</ele>
        <time>2019-01-24T08:02:09.000Z</time>
      </trkpt>
      <trkpt lat="42.12428" lon="2.41303">
        <ele>742.46558704453</ele>
        <time>2019-01-24T08:02:33.000Z</time>
      </trkpt>
      <trkpt lat="42.12437" lon="2.41296">
        <ele>745</ele>
        <time>2019-01-24T08:02:50.000Z</time>
      </trkpt>
      <trkpt lat="42.12446" lon="2.41294">
        <ele>745.05691056911</ele>
        <time>2019-01-24T08:02:59.000Z</time>
      </trkpt>
      <trkpt lat="42.12457" lon="2.41289">
        <ele>745.97154471545</ele>
        <time>2019-01-24T08:03:08.000Z</time>
      </trkpt>
      <trkpt lat="42.12467" lon="2.41288">
        <ele>746</ele>
        <time>2019-01-24T08:03:18.000Z</time>
      </trkpt>
      <trkpt lat="42.12477" lon="2.41287">
        <ele>746.872</ele>
        <time>2019-01-24T08:03:27.000Z</time>
      </trkpt>
      <trkpt lat="42.12487" lon="2.41291">
        <ele>748</ele>
        <time>2019-01-24T08:03:43.000Z</time>
      </trkpt>
      <trkpt lat="42.12496" lon="2.4128">
        <ele>754.16666666667</ele>
        <time>2019-01-24T08:04:10.000Z</time>
      </trkpt>
      <trkpt lat="42.12503" lon="2.41271">
        <ele>755.49586776859</ele>
        <time>2019-01-24T08:04:21.000Z</time>
      </trkpt>
      <trkpt lat="42.12508" lon="2.41261">
        <ele>758.13379619704</ele>
        <time>2019-01-24T08:04:34.000Z</time>
      </trkpt>
      <trkpt lat="42.12502" lon="2.41253">
        <ele>761.34439936</ele>
        <time>2019-01-24T08:04:55.002Z</time>
      </trkpt>
      <trkpt lat="42.12493" lon="2.41246">
        <ele>766.816</ele>
        <time>2019-01-24T08:05:11.000Z</time>
      </trkpt>
      <trkpt lat="42.12493" lon="2.41234">
        <ele>775</ele>
        <time>2019-01-24T08:05:39.000Z</time>
      </trkpt>
      <trkpt lat="42.125" lon="2.41225">
        <ele>776.944</ele>
        <time>2019-01-24T08:05:58.000Z</time>
      </trkpt>
      <trkpt lat="42.1249" lon="2.41222">
        <ele>785.13830882016</ele>
        <time>2019-01-24T08:06:34.000Z</time>
      </trkpt>
      <trkpt lat="42.12485" lon="2.41212">
        <ele>786.86097323187</ele>
        <time>2019-01-24T08:06:47.000Z</time>
      </trkpt>
      <trkpt lat="42.1248" lon="2.41202">
        <ele>790.344</ele>
        <time>2019-01-24T08:07:10.000Z</time>
      </trkpt>
      <trkpt lat="42.12479" lon="2.41189">
        <ele>793.47892720307</ele>
        <time>2019-01-24T08:07:26.000Z</time>
      </trkpt>
      <trkpt lat="42.12481" lon="2.41175">
        <ele>797.672</ele>
        <time>2019-01-24T08:07:45.000Z</time>
      </trkpt>
      <trkpt lat="42.12478" lon="2.41164">
        <ele>804.272</ele>
        <time>2019-01-24T08:08:11.000Z</time>
      </trkpt>
      <trkpt lat="42.12481" lon="2.41152">
        <ele>805.472</ele>
        <time>2019-01-24T08:08:23.000Z</time>
      </trkpt>
      <trkpt lat="42.12488" lon="2.41142">
        <ele>809.61264822134</ele>
        <time>2019-01-24T08:08:41.000Z</time>
      </trkpt>
      <trkpt lat="42.12489" lon="2.4113">
        <ele>815.69014193329</ele>
        <time>2019-01-24T08:08:54.000Z</time>
      </trkpt>
      <trkpt lat="42.12495" lon="2.41121">
        <ele>817.861691356</ele>
        <time>2019-01-24T08:09:07.000Z</time>
      </trkpt>
      <trkpt lat="42.12502" lon="2.41114">
        <ele>819.70132343209</ele>
        <time>2019-01-24T08:09:21.990Z</time>
      </trkpt>
      <trkpt lat="42.12511" lon="2.41107">
        <ele>821.87898013009</ele>
        <time>2019-01-24T08:09:33.000Z</time>
      </trkpt>
      <trkpt lat="42.12518" lon="2.41099">
        <ele>823</ele>
        <time>2019-01-24T08:09:42.000Z</time>
      </trkpt>
      <trkpt lat="42.12528" lon="2.41098">
        <ele>824.12</ele>
        <time>2019-01-24T08:09:54.000Z</time>
      </trkpt>
      <trkpt lat="42.12537" lon="2.41092">
        <ele>825.46363638714</ele>
        <time>2019-01-24T08:10:02.990Z</time>
      </trkpt>
      <trkpt lat="42.12545" lon="2.41086">
        <ele>827.70981688806</ele>
        <time>2019-01-24T08:10:13.988Z</time>
      </trkpt>
      <trkpt lat="42.12551" lon="2.41077">
        <ele>829.88200064</ele>
        <time>2019-01-24T08:10:27.100Z</time>
      </trkpt>
      <trkpt lat="42.12555" lon="2.41066">
        <ele>832.00738018999</ele>
        <time>2019-01-24T08:10:38.999Z</time>
      </trkpt>
      <trkpt lat="42.12561" lon="2.41056">
        <ele>833.372</ele>
        <time>2019-01-24T08:10:52.000Z</time>
      </trkpt>
      <trkpt lat="42.12566" lon="2.41045">
        <ele>835.14159872</ele>
        <time>2019-01-24T08:11:03.988Z</time>
      </trkpt>
      <trkpt lat="42.12566" lon="2.41033">
        <ele>837.92658793651</ele>
        <time>2019-01-24T08:11:17.990Z</time>
      </trkpt>
      <trkpt lat="42.12563" lon="2.4102">
        <ele>840.27100032</ele>
        <time>2019-01-24T08:11:30.990Z</time>
      </trkpt>
      <trkpt lat="42.12563" lon="2.41008">
        <ele>842.34200064</ele>
        <time>2019-01-24T08:11:44.990Z</time>
      </trkpt>
      <trkpt lat="42.12565" lon="2.40996">
        <ele>843.544</ele>
        <time>2019-01-24T08:12:01.000Z</time>
      </trkpt>
      <trkpt lat="42.12569" lon="2.40984">
        <ele>849.86</ele>
        <time>2019-01-24T08:12:24.000Z</time>
      </trkpt>
      <trkpt lat="42.12573" lon="2.40972">
        <ele>854.37069952</ele>
        <time>2019-01-24T08:12:41.987Z</time>
      </trkpt>
      <trkpt lat="42.12574" lon="2.4096">
        <ele>857.12694341007</ele>
        <time>2019-01-24T08:12:58.999Z</time>
      </trkpt>
      <trkpt lat="42.12577" lon="2.40948">
        <ele>863.21428571429</ele>
        <time>2019-01-24T08:13:19.000Z</time>
      </trkpt>
      <trkpt lat="42.12581" lon="2.40938">
        <ele>868.36336356729</ele>
        <time>2019-01-24T08:13:42.000Z</time>
      </trkpt>
      <trkpt lat="42.1259" lon="2.40933">
        <ele>874.06733698337</ele>
        <time>2019-01-24T08:14:09.000Z</time>
      </trkpt>
      <trkpt lat="42.12597" lon="2.40923">
        <ele>877.8359883871</ele>
        <time>2019-01-24T08:14:29.987Z</time>
      </trkpt>
      <trkpt lat="42.12602" lon="2.40913">
        <ele>877.67090048</ele>
        <time>2019-01-24T08:14:44.989Z</time>
      </trkpt>
      <trkpt lat="42.12605" lon="2.40901">
        <ele>879.76440064</ele>
        <time>2019-01-24T08:14:57.102Z</time>
      </trkpt>
      <trkpt lat="42.12608" lon="2.40889">
        <ele>882.94082212745</ele>
        <time>2019-01-24T08:15:13.000Z</time>
      </trkpt>
      <trkpt lat="42.12611" lon="2.40878">
        <ele>885.54380032</ele>
        <time>2019-01-24T08:15:25.999Z</time>
      </trkpt>
      <trkpt lat="42.12615" lon="2.40867">
        <ele>887.54119936</ele>
        <time>2019-01-24T08:15:40.986Z</time>
      </trkpt>
      <trkpt lat="42.1262" lon="2.40856">
        <ele>896.33380663968</ele>
        <time>2019-01-24T08:16:14.989Z</time>
      </trkpt>
      <trkpt lat="42.12628" lon="2.4085">
        <ele>900.28782352873</ele>
        <time>2019-01-24T08:16:39.001Z</time>
      </trkpt>
      <trkpt lat="42.12633" lon="2.40839">
        <ele>904</ele>
        <time>2019-01-24T08:16:58.000Z</time>
      </trkpt>
      <trkpt lat="42.12638" lon="2.40827">
        <ele>907.17048879905</ele>
        <time>2019-01-24T08:17:09.990Z</time>
      </trkpt>
      <trkpt lat="42.12642" lon="2.40815">
        <ele>908.53761301107</ele>
        <time>2019-01-24T08:17:20.990Z</time>
      </trkpt>
      <trkpt lat="42.12649" lon="2.40806">
        <ele>913.05952507937</ele>
        <time>2019-01-24T08:17:35.990Z</time>
      </trkpt>
      <trkpt lat="42.1265" lon="2.40793">
        <ele>916.60764419629</ele>
        <time>2019-01-24T08:17:47.000Z</time>
      </trkpt>
      <trkpt lat="42.1265" lon="2.4078">
        <ele>917.13453879518</ele>
        <time>2019-01-24T08:17:58.990Z</time>
      </trkpt>
      <trkpt lat="42.12651" lon="2.40768">
        <ele>919.57100032</ele>
        <time>2019-01-24T08:18:13.990Z</time>
      </trkpt>
      <trkpt lat="42.12655" lon="2.40756">
        <ele>920.54200064</ele>
        <time>2019-01-24T08:18:20.990Z</time>
      </trkpt>
      <trkpt lat="42.12658" lon="2.40743">
        <ele>922</ele>
        <time>2019-01-24T08:18:29.000Z</time>
      </trkpt>
      <trkpt lat="42.12666" lon="2.40736">
        <ele>922</ele>
        <time>2019-01-24T08:18:38.990Z</time>
      </trkpt>
      <trkpt lat="42.12672" lon="2.40728">
        <ele>922.53225806452</ele>
        <time>2019-01-24T08:18:51.000Z</time>
      </trkpt>
      <trkpt lat="42.12681" lon="2.40721">
        <ele>927</ele>
        <time>2019-01-24T08:19:12.998Z</time>
      </trkpt>
      <trkpt lat="42.12676" lon="2.40711">
        <ele>928.94086040067</ele>
        <time>2019-01-24T08:19:32.989Z</time>
      </trkpt>
      <trkpt lat="42.12678" lon="2.40699">
        <ele>936.41896526484</ele>
        <time>2019-01-24T08:20:01.999Z</time>
      </trkpt>
      <trkpt lat="42.12678" lon="2.40686">
        <ele>938.17100032</ele>
        <time>2019-01-24T08:20:19.990Z</time>
      </trkpt>
      <trkpt lat="42.12685" lon="2.40678">
        <ele>939.36904761905</ele>
        <time>2019-01-24T08:20:32.000Z</time>
      </trkpt>
      <trkpt lat="42.12689" lon="2.40667">
        <ele>943.535210923</ele>
        <time>2019-01-24T08:20:56.000Z</time>
      </trkpt>
      <trkpt lat="42.12692" lon="2.40655">
        <ele>949</ele>
        <time>2019-01-24T08:21:22.000Z</time>
      </trkpt>
      <trkpt lat="42.12695" lon="2.40643">
        <ele>950.14123601594</ele>
        <time>2019-01-24T08:21:38.989Z</time>
      </trkpt>
      <trkpt lat="42.12704" lon="2.40642">
        <ele>959</ele>
        <time>2019-01-24T08:22:14.000Z</time>
      </trkpt>
      <trkpt lat="42.12702" lon="2.4063">
        <ele>963.47090048</ele>
        <time>2019-01-24T08:22:42.989Z</time>
      </trkpt>
      <trkpt lat="42.12696" lon="2.40621">
        <ele>964</ele>
        <time>2019-01-24T08:23:07.986Z</time>
      </trkpt>
      <trkpt lat="42.12705" lon="2.40628">
        <ele>967</ele>
        <time>2019-01-24T08:23:33.989Z</time>
      </trkpt>
      <trkpt lat="42.12706" lon="2.40615">
        <ele>974.42899968</ele>
        <time>2019-01-24T08:27:53.990Z</time>
      </trkpt>
      <trkpt lat="42.12709" lon="2.40604">
        <ele>977.88320256</ele>
        <time>2019-01-24T08:28:32.988Z</time>
      </trkpt>
      <trkpt lat="42.12712" lon="2.40592">
        <ele>981.872</ele>
        <time>2019-01-24T08:28:57.000Z</time>
      </trkpt>
      <trkpt lat="42.12711" lon="2.4058">
        <ele>988.08157070101</ele>
        <time>2019-01-24T08:29:26.000Z</time>
      </trkpt>
      <trkpt lat="42.12719" lon="2.40571">
        <ele>991.52106935945</ele>
        <time>2019-01-24T08:29:46.000Z</time>
      </trkpt>
      <trkpt lat="42.12719" lon="2.40559">
        <ele>997.73272740632</ele>
        <time>2019-01-24T08:30:21.988Z</time>
      </trkpt>
      <trkpt lat="42.12728" lon="2.40557">
        <ele>998.48760064</ele>
        <time>2019-01-24T08:31:16.999Z</time>
      </trkpt>
      <trkpt lat="42.12728" lon="2.40544">
        <ele>1012.31300096</ele>
        <time>2019-01-24T08:32:05.990Z</time>
      </trkpt>
      <trkpt lat="42.1272" lon="2.40536">
        <ele>1013.0623621998</ele>
        <time>2019-01-24T08:32:18.988Z</time>
      </trkpt>
      <trkpt lat="42.12725" lon="2.40525">
        <ele>1014.3684212533</ele>
        <time>2019-01-24T08:32:31.990Z</time>
      </trkpt>
      <trkpt lat="42.12722" lon="2.40513">
        <ele>1017.0422017094</ele>
        <time>2019-01-24T08:32:48.999Z</time>
      </trkpt>
      <trkpt lat="42.12723" lon="2.405">
        <ele>1023.57180032</ele>
        <time>2019-01-24T08:33:13.998Z</time>
      </trkpt>
      <trkpt lat="42.12727" lon="2.40489">
        <ele>1028.1701188845</ele>
        <time>2019-01-24T08:34:19.988Z</time>
      </trkpt>
      <trkpt lat="42.12736" lon="2.40483">
        <ele>1031</ele>
        <time>2019-01-24T08:35:43.003Z</time>
      </trkpt>
      <trkpt lat="42.12741" lon="2.40473">
        <ele>1029.6287854546</ele>
        <time>2019-01-24T08:35:51.990Z</time>
      </trkpt>
      <trkpt lat="42.12751" lon="2.40475">
        <ele>1026.9871644108</ele>
        <time>2019-01-24T08:35:58.990Z</time>
      </trkpt>
      <trkpt lat="42.12756" lon="2.40464">
        <ele>1025.4900522815</ele>
        <time>2019-01-24T08:36:05.989Z</time>
      </trkpt>
      <trkpt lat="42.12759" lon="2.40452">
        <ele>1025.74139904</ele>
        <time>2019-01-24T08:36:11.987Z</time>
      </trkpt>
      <trkpt lat="42.12764" lon="2.40442">
        <ele>1029</ele>
        <time>2019-01-24T08:36:45.990Z</time>
      </trkpt>
      <trkpt lat="42.12769" lon="2.40432">
        <ele>1029.7693859478</ele>
        <time>2019-01-24T08:36:55.990Z</time>
      </trkpt>
      <trkpt lat="42.12776" lon="2.40424">
        <ele>1030</ele>
        <time>2019-01-24T08:37:04.990Z</time>
      </trkpt>
      <trkpt lat="42.12785" lon="2.40417">
        <ele>1030</ele>
        <time>2019-01-24T08:37:11.990Z</time>
      </trkpt>
      <trkpt lat="42.1279" lon="2.40405">
        <ele>1030</ele>
        <time>2019-01-24T08:37:20.990Z</time>
      </trkpt>
      <trkpt lat="42.12797" lon="2.40397">
        <ele>1030.34200064</ele>
        <time>2019-01-24T08:37:29.990Z</time>
      </trkpt>
      <trkpt lat="42.12806" lon="2.40393">
        <ele>1033.14200064</ele>
        <time>2019-01-24T08:37:43.990Z</time>
      </trkpt>
      <trkpt lat="42.12814" lon="2.40386">
        <ele>1035.74200064</ele>
        <time>2019-01-24T08:37:56.990Z</time>
      </trkpt>
      <trkpt lat="42.1282" lon="2.40376">
        <ele>1038.369047619</ele>
        <time>2019-01-24T08:38:22.000Z</time>
      </trkpt>
      <trkpt lat="42.12827" lon="2.40368">
        <ele>1040.94180096</ele>
        <time>2019-01-24T08:38:42.989Z</time>
      </trkpt>
      <trkpt lat="42.12833" lon="2.40358">
        <ele>1047.5509193575</ele>
        <time>2019-01-24T08:39:03.991Z</time>
      </trkpt>
      <trkpt lat="42.12832" lon="2.40346">
        <ele>1050</ele>
        <time>2019-01-24T08:39:18.990Z</time>
      </trkpt>
      <trkpt lat="42.12839" lon="2.40337">
        <ele>1052.3395394308</ele>
        <time>2019-01-24T08:39:39.986Z</time>
      </trkpt>
      <trkpt lat="42.12848" lon="2.40333">
        <ele>1055.94200064</ele>
        <time>2019-01-24T08:39:57.990Z</time>
      </trkpt>
      <trkpt lat="42.12854" lon="2.40323">
        <ele>1063</ele>
        <time>2019-01-24T08:40:23.990Z</time>
      </trkpt>
      <trkpt lat="42.1286" lon="2.40313">
        <ele>1063.6676768761</ele>
        <time>2019-01-24T08:40:34.990Z</time>
      </trkpt>
      <trkpt lat="42.12865" lon="2.40303">
        <ele>1066</ele>
        <time>2019-01-24T08:41:21.002Z</time>
      </trkpt>
      <trkpt lat="42.1287" lon="2.40291">
        <ele>1065.62899968</ele>
        <time>2019-01-24T08:41:31.990Z</time>
      </trkpt>
      <trkpt lat="42.12877" lon="2.40282">
        <ele>1065</ele>
        <time>2019-01-24T08:41:41.990Z</time>
      </trkpt>
      <trkpt lat="42.12886" lon="2.40282">
        <ele>1065.058252391</ele>
        <time>2019-01-24T08:42:17.990Z</time>
      </trkpt>
      <trkpt lat="42.12893" lon="2.40273">
        <ele>1064.2446483978</ele>
        <time>2019-01-24T08:42:26.000Z</time>
      </trkpt>
      <trkpt lat="42.12901" lon="2.40265">
        <ele>1064</ele>
        <time>2019-01-24T08:42:34.990Z</time>
      </trkpt>
      <trkpt lat="42.12909" lon="2.4026">
        <ele>1064</ele>
        <time>2019-01-24T08:42:46.988Z</time>
      </trkpt>
      <trkpt lat="42.12911" lon="2.40247">
        <ele>1065.94200064</ele>
        <time>2019-01-24T08:42:57.990Z</time>
      </trkpt>
      <trkpt lat="42.1292" lon="2.40248">
        <ele>1070.74159872</ele>
        <time>2019-01-24T08:44:01.988Z</time>
      </trkpt>
      <trkpt lat="42.12928" lon="2.40241">
        <ele>1072</ele>
        <time>2019-01-24T08:44:12.988Z</time>
      </trkpt>
      <trkpt lat="42.12934" lon="2.40231">
        <ele>1074.21300096</ele>
        <time>2019-01-24T08:44:28.990Z</time>
      </trkpt>
      <trkpt lat="42.12943" lon="2.40224">
        <ele>1079.48319744</ele>
        <time>2019-01-24T08:44:51.988Z</time>
      </trkpt>
      <trkpt lat="42.12946" lon="2.40236">
        <ele>1082</ele>
        <time>2019-01-24T08:45:05.000Z</time>
      </trkpt>
      <trkpt lat="42.1295" lon="2.40224">
        <ele>1083.94200064</ele>
        <time>2019-01-24T08:45:17.990Z</time>
      </trkpt>
      <trkpt lat="42.12955" lon="2.40213">
        <ele>1088.6509672278</ele>
        <time>2019-01-24T08:45:34.989Z</time>
      </trkpt>
      <trkpt lat="42.12963" lon="2.40208">
        <ele>1095.1318464053</ele>
        <time>2019-01-24T08:46:14.000Z</time>
      </trkpt>
      <trkpt lat="42.12971" lon="2.40203">
        <ele>1099.62899968</ele>
        <time>2019-01-24T08:46:51.990Z</time>
      </trkpt>
      <trkpt lat="42.12979" lon="2.40198">
        <ele>1103</ele>
        <time>2019-01-24T08:47:14.999Z</time>
      </trkpt>
      <trkpt lat="42.12987" lon="2.40192">
        <ele>1114.0419929087</ele>
        <time>2019-01-24T08:49:08.989Z</time>
      </trkpt>
      <trkpt lat="42.12991" lon="2.40181">
        <ele>1117.97100032</ele>
        <time>2019-01-24T08:49:47.990Z</time>
      </trkpt>
      <trkpt lat="42.12995" lon="2.4017">
        <ele>1118.94160128</ele>
        <time>2019-01-24T08:50:02.988Z</time>
      </trkpt>
      <trkpt lat="42.13003" lon="2.40161">
        <ele>1125.744</ele>
        <time>2019-01-24T08:51:02.000Z</time>
      </trkpt>
      <trkpt lat="42.13013" lon="2.40161">
        <ele>1135.866667261</ele>
        <time>2019-01-24T08:52:26.990Z</time>
      </trkpt>
      <trkpt lat="42.13022" lon="2.4016">
        <ele>1139.3625485259</ele>
        <time>2019-01-24T08:52:40.100Z</time>
      </trkpt>
      <trkpt lat="42.13031" lon="2.40158">
        <ele>1143.3646351615</ele>
        <time>2019-01-24T08:53:02.000Z</time>
      </trkpt>
      <trkpt lat="42.13041" lon="2.40159">
        <ele>1144.9717741935</ele>
        <time>2019-01-24T08:53:18.000Z</time>
      </trkpt>
      <trkpt lat="42.1305" lon="2.40164">
        <ele>1143.72909952</ele>
        <time>2019-01-24T08:53:30.989Z</time>
      </trkpt>
      <trkpt lat="42.13059" lon="2.40171">
        <ele>1141.9345420937</ele>
        <time>2019-01-24T08:53:49.000Z</time>
      </trkpt>
      <trkpt lat="42.13068" lon="2.40167">
        <ele>1141</ele>
        <time>2019-01-24T08:54:07.000Z</time>
      </trkpt>
      <trkpt lat="42.13077" lon="2.40172">
        <ele>1137.1485552467</ele>
        <time>2019-01-24T08:54:24.000Z</time>
      </trkpt>
      <trkpt lat="42.13086" lon="2.40179">
        <ele>1133.0600613221</ele>
        <time>2019-01-24T08:54:38.000Z</time>
      </trkpt>
      <trkpt lat="42.13095" lon="2.40177">
        <ele>1132.0280561302</ele>
        <time>2019-01-24T08:54:48.000Z</time>
      </trkpt>
      <trkpt lat="42.13105" lon="2.40183">
        <ele>1131.1882719342</ele>
        <time>2019-01-24T08:55:00.400Z</time>
      </trkpt>
      <trkpt lat="42.13115" lon="2.40181">
        <ele>1132.7295967941</ele>
        <time>2019-01-24T08:55:12.000Z</time>
      </trkpt>
      <trkpt lat="42.13124" lon="2.40183">
        <ele>1133.9450107992</ele>
        <time>2019-01-24T08:55:19.000Z</time>
      </trkpt>
      <trkpt lat="42.13133" lon="2.40188">
        <ele>1133.0285132569</ele>
        <time>2019-01-24T08:55:28.000Z</time>
      </trkpt>
      <trkpt lat="42.13141" lon="2.40182">
        <ele>1132</ele>
        <time>2019-01-24T08:55:41.989Z</time>
      </trkpt>
      <trkpt lat="42.1315" lon="2.40182">
        <ele>1131.2385378656</ele>
        <time>2019-01-24T08:55:55.986Z</time>
      </trkpt>
      <trkpt lat="42.13158" lon="2.40189">
        <ele>1129.2591093117</ele>
        <time>2019-01-24T08:56:07.000Z</time>
      </trkpt>
      <trkpt lat="42.13167" lon="2.40191">
        <ele>1126.0152692916</ele>
        <time>2019-01-24T08:56:24.999Z</time>
      </trkpt>
      <trkpt lat="42.13178" lon="2.40191">
        <ele>1125</ele>
        <time>2019-01-24T08:56:40.990Z</time>
      </trkpt>
      <trkpt lat="42.13186" lon="2.40198">
        <ele>1125</ele>
        <time>2019-01-24T08:56:55.000Z</time>
      </trkpt>
      <trkpt lat="42.13194" lon="2.40205">
        <ele>1124.22899968</ele>
        <time>2019-01-24T08:57:05.989Z</time>
      </trkpt>
      <trkpt lat="42.132" lon="2.40213">
        <ele>1121.4329392191</ele>
        <time>2019-01-24T08:57:23.989Z</time>
      </trkpt>
      <trkpt lat="42.13209" lon="2.4021">
        <ele>1121.37100032</ele>
        <time>2019-01-24T08:57:31.989Z</time>
      </trkpt>
      <trkpt lat="42.13218" lon="2.40215">
        <ele>1122.944</ele>
        <time>2019-01-24T08:57:42.999Z</time>
      </trkpt>
      <trkpt lat="42.13227" lon="2.40218">
        <ele>1124</ele>
        <time>2019-01-24T08:57:53.001Z</time>
      </trkpt>
      <trkpt lat="42.13232" lon="2.4023">
        <ele>1123.7441179608</ele>
        <time>2019-01-24T08:58:01.000Z</time>
      </trkpt>
      <trkpt lat="42.13241" lon="2.40233">
        <ele>1121.6971494564</ele>
        <time>2019-01-24T08:58:14.987Z</time>
      </trkpt>
      <trkpt lat="42.1325" lon="2.40238">
        <ele>1121.9703136064</ele>
        <time>2019-01-24T08:58:27.987Z</time>
      </trkpt>
      <trkpt lat="42.13256" lon="2.40248">
        <ele>1122.8616588142</ele>
        <time>2019-01-24T08:58:38.990Z</time>
      </trkpt>
      <trkpt lat="42.13263" lon="2.40257">
        <ele>1121.0579315663</ele>
        <time>2019-01-24T08:58:48.987Z</time>
      </trkpt>
      <trkpt lat="42.13265" lon="2.40269">
        <ele>1121.8624501205</ele>
        <time>2019-01-24T08:58:57.000Z</time>
      </trkpt>
      <trkpt lat="42.13274" lon="2.40271">
        <ele>1123.5376398668</ele>
        <time>2019-01-24T08:59:05.989Z</time>
      </trkpt>
      <trkpt lat="42.13279" lon="2.40282">
        <ele>1123.734239431</ele>
        <time>2019-01-24T08:59:20.989Z</time>
      </trkpt>
      <trkpt lat="42.13285" lon="2.40293">
        <ele>1121.65819904</ele>
        <time>2019-01-24T08:59:34.989Z</time>
      </trkpt>
      <trkpt lat="42.13292" lon="2.40302">
        <ele>1120.34119936</ele>
        <time>2019-01-24T08:59:59.986Z</time>
      </trkpt>
      <trkpt lat="42.13301" lon="2.40303">
        <ele>1121.8301186991</ele>
        <time>2019-01-24T09:00:19.989Z</time>
      </trkpt>
      <trkpt lat="42.1331" lon="2.40304">
        <ele>1124.3545024</ele>
        <time>2019-01-24T09:00:40.989Z</time>
      </trkpt>
      <trkpt lat="42.13318" lon="2.40299">
        <ele>1128</ele>
        <time>2019-01-24T09:00:52.989Z</time>
      </trkpt>
      <trkpt lat="42.13327" lon="2.40304">
        <ele>1127.428</ele>
        <time>2019-01-24T09:01:04.000Z</time>
      </trkpt>
      <trkpt lat="42.13334" lon="2.4031">
        <ele>1127</ele>
        <time>2019-01-24T09:01:19.000Z</time>
      </trkpt>
      <trkpt lat="42.13339" lon="2.40322">
        <ele>1126.4351919285</ele>
        <time>2019-01-24T09:01:33.989Z</time>
      </trkpt>
      <trkpt lat="42.13348" lon="2.40329">
        <ele>1126</ele>
        <time>2019-01-24T09:01:49.000Z</time>
      </trkpt>
      <trkpt lat="42.13354" lon="2.40339">
        <ele>1125.4712400497</ele>
        <time>2019-01-24T09:02:00.990Z</time>
      </trkpt>
      <trkpt lat="42.13358" lon="2.40351">
        <ele>1124</ele>
        <time>2019-01-24T09:02:13.000Z</time>
      </trkpt>
      <trkpt lat="42.13366" lon="2.40357">
        <ele>1123.22899968</ele>
        <time>2019-01-24T09:02:25.990Z</time>
      </trkpt>
      <trkpt lat="42.13376" lon="2.4036">
        <ele>1123.8376777941</ele>
        <time>2019-01-24T09:02:39.987Z</time>
      </trkpt>
      <trkpt lat="42.13383" lon="2.40369">
        <ele>1121.28790144</ele>
        <time>2019-01-24T09:02:53.987Z</time>
      </trkpt>
      <trkpt lat="42.13393" lon="2.40373">
        <ele>1122</ele>
        <time>2019-01-24T09:03:10.990Z</time>
      </trkpt>
      <trkpt lat="42.13396" lon="2.40384">
        <ele>1122.27100032</ele>
        <time>2019-01-24T09:03:20.990Z</time>
      </trkpt>
      <trkpt lat="42.13402" lon="2.40394">
        <ele>1123</ele>
        <time>2019-01-24T09:03:33.000Z</time>
      </trkpt>
      <trkpt lat="42.13411" lon="2.40398">
        <ele>1123</ele>
        <time>2019-01-24T09:03:43.989Z</time>
      </trkpt>
      <trkpt lat="42.13419" lon="2.40405">
        <ele>1122.9364916129</ele>
        <time>2019-01-24T09:03:58.990Z</time>
      </trkpt>
      <trkpt lat="42.13425" lon="2.40415">
        <ele>1122.13004</ele>
        <time>2019-01-24T09:04:06.990Z</time>
      </trkpt>
      <trkpt lat="42.13436" lon="2.40416">
        <ele>1122.5698602348</ele>
        <time>2019-01-24T09:04:13.990Z</time>
      </trkpt>
      <trkpt lat="42.13439" lon="2.40428">
        <ele>1118.656</ele>
        <time>2019-01-24T09:04:45.000Z</time>
      </trkpt>
      <trkpt lat="42.13443" lon="2.40441">
        <ele>1117.428</ele>
        <time>2019-01-24T09:04:54.000Z</time>
      </trkpt>
      <trkpt lat="42.13444" lon="2.40454">
        <ele>1115.2482614504</ele>
        <time>2019-01-24T09:05:07.100Z</time>
      </trkpt>
      <trkpt lat="42.13442" lon="2.40466">
        <ele>1117.27150188</ele>
        <time>2019-01-24T09:05:13.989Z</time>
      </trkpt>
      <trkpt lat="42.13445" lon="2.40479">
        <ele>1119</ele>
        <time>2019-01-24T09:05:23.987Z</time>
      </trkpt>
      <trkpt lat="42.13451" lon="2.4049">
        <ele>1118.18790144</ele>
        <time>2019-01-24T09:05:30.987Z</time>
      </trkpt>
      <trkpt lat="42.1345" lon="2.40503">
        <ele>1116.68729856</ele>
        <time>2019-01-24T09:05:35.989Z</time>
      </trkpt>
      <trkpt lat="42.13452" lon="2.40514">
        <ele>1116</ele>
        <time>2019-01-24T09:05:42.990Z</time>
      </trkpt>
      <trkpt lat="42.13453" lon="2.40527">
        <ele>1118.9364916129</ele>
        <time>2019-01-24T09:06:28.990Z</time>
      </trkpt>
      <trkpt lat="42.13457" lon="2.40539">
        <ele>1118.27100032</ele>
        <time>2019-01-24T09:06:40.990Z</time>
      </trkpt>
      <trkpt lat="42.13461" lon="2.40551">
        <ele>1120.74200064</ele>
        <time>2019-01-24T09:06:56.990Z</time>
      </trkpt>
      <trkpt lat="42.13465" lon="2.40563">
        <ele>1122.54139904</ele>
        <time>2019-01-24T09:07:05.987Z</time>
      </trkpt>
      <trkpt lat="42.13471" lon="2.40573">
        <ele>1123.77100032</ele>
        <time>2019-01-24T09:07:15.990Z</time>
      </trkpt>
      <trkpt lat="42.13474" lon="2.40586">
        <ele>1129.2163492829</ele>
        <time>2019-01-24T09:07:27.000Z</time>
      </trkpt>
      <trkpt lat="42.13474" lon="2.40599">
        <ele>1131.0770757312</ele>
        <time>2019-01-24T09:07:38.990Z</time>
      </trkpt>
      <trkpt lat="42.13473" lon="2.40611">
        <ele>1133.0564860251</ele>
        <time>2019-01-24T09:07:48.990Z</time>
      </trkpt>
      <trkpt lat="42.13481" lon="2.40617">
        <ele>1135.54200064</ele>
        <time>2019-01-24T09:08:00.990Z</time>
      </trkpt>
      <trkpt lat="42.13484" lon="2.40629">
        <ele>1137.369047619</ele>
        <time>2019-01-24T09:08:12.000Z</time>
      </trkpt>
      <trkpt lat="42.13487" lon="2.40641">
        <ele>1141.94220032</ele>
        <time>2019-01-24T09:08:47.991Z</time>
      </trkpt>
      <trkpt lat="42.13481" lon="2.4065">
        <ele>1141</ele>
        <time>2019-01-24T09:09:42.990Z</time>
      </trkpt>
      <trkpt lat="42.13491" lon="2.40654">
        <ele>1139.91599872</ele>
        <time>2019-01-24T09:09:50.990Z</time>
      </trkpt>
      <trkpt lat="42.135" lon="2.40651">
        <ele>1137.11639808</ele>
        <time>2019-01-24T09:09:57.989Z</time>
      </trkpt>
      <trkpt lat="42.13509" lon="2.40652">
        <ele>1135.6606788594</ele>
        <time>2019-01-24T09:10:04.990Z</time>
      </trkpt>
      <trkpt lat="42.13519" lon="2.40653">
        <ele>1134.6292589206</ele>
        <time>2019-01-24T09:10:12.000Z</time>
      </trkpt>
      <trkpt lat="42.13528" lon="2.40656">
        <ele>1133.72899968</ele>
        <time>2019-01-24T09:10:20.990Z</time>
      </trkpt>
      <trkpt lat="42.13536" lon="2.40661">
        <ele>1133.02899968</ele>
        <time>2019-01-24T09:10:27.990Z</time>
      </trkpt>
      <trkpt lat="42.13545" lon="2.40662">
        <ele>1130.7889866667</ele>
        <time>2019-01-24T09:10:58.989Z</time>
      </trkpt>
      <trkpt lat="42.13554" lon="2.40667">
        <ele>1129.3014895238</ele>
        <time>2019-01-24T09:11:03.987Z</time>
      </trkpt>
      <trkpt lat="42.13564" lon="2.40671">
        <ele>1128.0631633031</ele>
        <time>2019-01-24T09:11:08.991Z</time>
      </trkpt>
      <trkpt lat="42.13575" lon="2.40675">
        <ele>1128.4633636954</ele>
        <time>2019-01-24T09:11:12.989Z</time>
      </trkpt>
      <trkpt lat="42.13584" lon="2.40678">
        <ele>1128.8648645878</ele>
        <time>2019-01-24T09:11:17.000Z</time>
      </trkpt>
      <trkpt lat="42.13593" lon="2.40677">
        <ele>1121.2296298764</ele>
        <time>2019-01-24T09:12:15.986Z</time>
      </trkpt>
      <trkpt lat="42.13604" lon="2.40676">
        <ele>1121</ele>
        <time>2019-01-24T09:12:20.987Z</time>
      </trkpt>
      <trkpt lat="42.13614" lon="2.40675">
        <ele>1121</ele>
        <time>2019-01-24T09:12:24.986Z</time>
      </trkpt>
      <trkpt lat="42.13624" lon="2.40673">
        <ele>1120.71639808</ele>
        <time>2019-01-24T09:12:28.989Z</time>
      </trkpt>
      <trkpt lat="42.13634" lon="2.40672">
        <ele>1119.512</ele>
        <time>2019-01-24T09:12:32.000Z</time>
      </trkpt>
      <trkpt lat="42.13644" lon="2.40673">
        <ele>1117.91720192</ele>
        <time>2019-01-24T09:12:35.987Z</time>
      </trkpt>
      <trkpt lat="42.13654" lon="2.40673">
        <ele>1116.48729856</ele>
        <time>2019-01-24T09:12:39.989Z</time>
      </trkpt>
      <trkpt lat="42.13664" lon="2.40679">
        <ele>1115.28699904</ele>
        <time>2019-01-24T09:12:43.990Z</time>
      </trkpt>
      <trkpt lat="42.13673" lon="2.40681">
        <ele>1114.08729856</ele>
        <time>2019-01-24T09:12:47.989Z</time>
      </trkpt>
      <trkpt lat="42.13681" lon="2.4069">
        <ele>1112.2256671756</ele>
        <time>2019-01-24T09:12:51.999Z</time>
      </trkpt>
      <trkpt lat="42.13688" lon="2.40701">
        <ele>1110.7981862595</ele>
        <time>2019-01-24T09:12:54.991Z</time>
      </trkpt>
      <trkpt lat="42.13693" lon="2.40712">
        <ele>1108.9731092437</ele>
        <time>2019-01-24T09:12:59.016Z</time>
      </trkpt>
      <trkpt lat="42.13699" lon="2.40723">
        <ele>1108.6595589916</ele>
        <time>2019-01-24T09:13:02.001Z</time>
      </trkpt>
      <trkpt lat="42.13707" lon="2.4073">
        <ele>1108.2406507563</ele>
        <time>2019-01-24T09:13:05.989Z</time>
      </trkpt>
      <trkpt lat="42.13714" lon="2.40738">
        <ele>1108.3411185047</ele>
        <time>2019-01-24T09:13:09.989Z</time>
      </trkpt>
      <trkpt lat="42.13723" lon="2.40742">
        <ele>1109.5387225302</ele>
        <time>2019-01-24T09:13:15.989Z</time>
      </trkpt>
      <trkpt lat="42.13731" lon="2.40751">
        <ele>1109.45819904</ele>
        <time>2019-01-24T09:13:45.989Z</time>
      </trkpt>
      <trkpt lat="42.1374" lon="2.40757">
        <ele>1108.638991693</ele>
        <time>2019-01-24T09:13:52.002Z</time>
      </trkpt>
      <trkpt lat="42.1375" lon="2.40757">
        <ele>1108.1540257912</ele>
        <time>2019-01-24T09:13:57.002Z</time>
      </trkpt>
      <trkpt lat="42.13758" lon="2.40753">
        <ele>1105.7718244035</ele>
        <time>2019-01-24T09:14:00.989Z</time>
      </trkpt>
      <trkpt lat="42.13767" lon="2.40749">
        <ele>1101.1269327148</ele>
        <time>2019-01-24T09:14:05.990Z</time>
      </trkpt>
      <trkpt lat="42.13776" lon="2.40743">
        <ele>1098.6304868701</ele>
        <time>2019-01-24T09:14:12.001Z</time>
      </trkpt>
      <trkpt lat="42.13785" lon="2.40735">
        <ele>1098.1339626982</ele>
        <time>2019-01-24T09:14:17.001Z</time>
      </trkpt>
      <trkpt lat="42.13791" lon="2.40726">
        <ele>1097.6325277366</ele>
        <time>2019-01-24T09:14:21.999Z</time>
      </trkpt>
      <trkpt lat="42.13786" lon="2.40714">
        <ele>1097.1290029016</ele>
        <time>2019-01-24T09:14:26.999Z</time>
      </trkpt>
      <trkpt lat="42.13783" lon="2.40703">
        <ele>1094.0454812964</ele>
        <time>2019-01-24T09:14:31.999Z</time>
      </trkpt>
      <trkpt lat="42.13779" lon="2.4069">
        <ele>1090.0717015859</ele>
        <time>2019-01-24T09:14:37.001Z</time>
      </trkpt>
      <trkpt lat="42.13775" lon="2.40678">
        <ele>1087.9006033735</ele>
        <time>2019-01-24T09:14:42.000Z</time>
      </trkpt>
      <trkpt lat="42.13771" lon="2.40665">
        <ele>1086.6957840964</ele>
        <time>2019-01-24T09:14:46.000Z</time>
      </trkpt>
      <trkpt lat="42.13764" lon="2.40652">
        <ele>1085.6616624107</ele>
        <time>2019-01-24T09:14:50.000Z</time>
      </trkpt>
      <trkpt lat="42.1376" lon="2.40639">
        <ele>1084.4622630752</ele>
        <time>2019-01-24T09:14:55.991Z</time>
      </trkpt>
      <trkpt lat="42.13755" lon="2.40627">
        <ele>1082.9178375425</ele>
        <time>2019-01-24T09:15:01.000Z</time>
      </trkpt>
      <trkpt lat="42.13745" lon="2.40611">
        <ele>1080.5130263811</ele>
        <time>2019-01-24T09:15:07.000Z</time>
      </trkpt>
      <trkpt lat="42.13739" lon="2.40601">
        <ele>1080.1708043151</ele>
        <time>2019-01-24T09:15:10.000Z</time>
      </trkpt>
      <trkpt lat="42.13731" lon="2.40591">
        <ele>1080.6660370475</ele>
        <time>2019-01-24T09:15:14.987Z</time>
      </trkpt>
      <trkpt lat="42.13726" lon="2.4058">
        <ele>1080.8690841874</ele>
        <time>2019-01-24T09:15:19.000Z</time>
      </trkpt>
      <trkpt lat="42.13722" lon="2.40569">
        <ele>1080.0654579063</ele>
        <time>2019-01-24T09:15:22.990Z</time>
      </trkpt>
      <trkpt lat="42.13713" lon="2.40562">
        <ele>1079.2374613454</ele>
        <time>2019-01-24T09:15:27.101Z</time>
      </trkpt>
      <trkpt lat="42.13704" lon="2.40554">
        <ele>1077.368</ele>
        <time>2019-01-24T09:15:31.000Z</time>
      </trkpt>
      <trkpt lat="42.13694" lon="2.40547">
        <ele>1074.368</ele>
        <time>2019-01-24T09:15:36.000Z</time>
      </trkpt>
      <trkpt lat="42.13685" lon="2.4054">
        <ele>1072.8309590248</ele>
        <time>2019-01-24T09:15:39.989Z</time>
      </trkpt>
      <trkpt lat="42.13676" lon="2.40535">
        <ele>1072.3363005859</ele>
        <time>2019-01-24T09:15:44.990Z</time>
      </trkpt>
      <trkpt lat="42.13666" lon="2.40531">
        <ele>1071.7066592616</ele>
        <time>2019-01-24T09:15:48.989Z</time>
      </trkpt>
      <trkpt lat="42.13657" lon="2.40528">
        <ele>1069.2580786705</ele>
        <time>2019-01-24T09:15:53.989Z</time>
      </trkpt>
      <trkpt lat="42.13649" lon="2.40522">
        <ele>1066.8006214876</ele>
        <time>2019-01-24T09:15:58.986Z</time>
      </trkpt>
      <trkpt lat="42.13639" lon="2.40516">
        <ele>1064.215907438</ele>
        <time>2019-01-24T09:16:03.990Z</time>
      </trkpt>
      <trkpt lat="42.1363" lon="2.40511">
        <ele>1062.1497917355</ele>
        <time>2019-01-24T09:16:07.990Z</time>
      </trkpt>
      <trkpt lat="42.13619" lon="2.40508">
        <ele>1061.5318085292</ele>
        <time>2019-01-24T09:16:12.990Z</time>
      </trkpt>
      <trkpt lat="42.13609" lon="2.40506">
        <ele>1061.0347903203</ele>
        <time>2019-01-24T09:16:17.990Z</time>
      </trkpt>
      <trkpt lat="42.13599" lon="2.40504">
        <ele>1060.0643849887</ele>
        <time>2019-01-24T09:16:22.990Z</time>
      </trkpt>
      <trkpt lat="42.1359" lon="2.40499">
        <ele>1059.0589546502</ele>
        <time>2019-01-24T09:16:27.987Z</time>
      </trkpt>
      <trkpt lat="42.13583" lon="2.40491">
        <ele>1058.62899968</ele>
        <time>2019-01-24T09:16:31.990Z</time>
      </trkpt>
      <trkpt lat="42.13573" lon="2.40481">
        <ele>1058.22829952</ele>
        <time>2019-01-24T09:16:35.997Z</time>
      </trkpt>
      <trkpt lat="42.13564" lon="2.40471">
        <ele>1057.829511201</ele>
        <time>2019-01-24T09:16:39.990Z</time>
      </trkpt>
      <trkpt lat="42.13555" lon="2.40465">
        <ele>1057.430707739</ele>
        <time>2019-01-24T09:16:43.990Z</time>
      </trkpt>
      <trkpt lat="42.13542" lon="2.40453">
        <ele>1056.7328703133</ele>
        <time>2019-01-24T09:16:51.000Z</time>
      </trkpt>
      <trkpt lat="42.13539" lon="2.40433">
        <ele>1056.0377364726</ele>
        <time>2019-01-24T09:16:58.000Z</time>
      </trkpt>
      <trkpt lat="42.13537" lon="2.40419">
        <ele>1055.4951839662</ele>
        <time>2019-01-24T09:17:01.000Z</time>
      </trkpt>
      <trkpt lat="42.13535" lon="2.40406">
        <ele>1054.5317922354</ele>
        <time>2019-01-24T09:17:06.000Z</time>
      </trkpt>
      <trkpt lat="42.13534" lon="2.40392">
        <ele>1053.9243697479</ele>
        <time>2019-01-24T09:17:09.000Z</time>
      </trkpt>
      <trkpt lat="42.13532" lon="2.40379">
        <ele>1052.3522043698</ele>
        <time>2019-01-24T09:17:13.989Z</time>
      </trkpt>
      <trkpt lat="42.13534" lon="2.40363">
        <ele>1050.4896144049</ele>
        <time>2019-01-24T09:17:20.000Z</time>
      </trkpt>
      <trkpt lat="42.13534" lon="2.40347">
        <ele>1049.0062316103</ele>
        <time>2019-01-24T09:17:24.999Z</time>
      </trkpt>
      <trkpt lat="42.13537" lon="2.40332">
        <ele>1047.3492420948</ele>
        <time>2019-01-24T09:17:29.999Z</time>
      </trkpt>
      <trkpt lat="42.13535" lon="2.4032">
        <ele>1045.3265929469</ele>
        <time>2019-01-24T09:17:35.000Z</time>
      </trkpt>
      <trkpt lat="42.13528" lon="2.4031">
        <ele>1042.6684520635</ele>
        <time>2019-01-24T09:17:44.991Z</time>
      </trkpt>
      <trkpt lat="42.13522" lon="2.40299">
        <ele>1042</ele>
        <time>2019-01-24T09:17:52.000Z</time>
      </trkpt>
      <trkpt lat="42.13517" lon="2.40285">
        <ele>1042.0373443983</ele>
        <time>2019-01-24T09:17:59.000Z</time>
      </trkpt>
      <trkpt lat="42.13513" lon="2.40272">
        <ele>1042.5550831535</ele>
        <time>2019-01-24T09:18:03.991Z</time>
      </trkpt>
      <trkpt lat="42.13512" lon="2.40259">
        <ele>1042.9707472199</ele>
        <time>2019-01-24T09:18:07.998Z</time>
      </trkpt>
      <trkpt lat="42.13521" lon="2.40254">
        <ele>1042.3357425199</ele>
        <time>2019-01-24T09:18:14.989Z</time>
      </trkpt>
      <trkpt lat="42.13528" lon="2.40265">
        <ele>1041.5118193208</ele>
        <time>2019-01-24T09:18:19.991Z</time>
      </trkpt>
      <trkpt lat="42.13538" lon="2.40282">
        <ele>1039.3878790386</ele>
        <time>2019-01-24T09:18:27.000Z</time>
      </trkpt>
      <trkpt lat="42.13545" lon="2.4029">
        <ele>1038.828</ele>
        <time>2019-01-24T09:18:30.000Z</time>
      </trkpt>
      <trkpt lat="42.13548" lon="2.40304">
        <ele>1038.42889984</ele>
        <time>2019-01-24T09:18:33.991Z</time>
      </trkpt>
      <trkpt lat="42.13554" lon="2.40316">
        <ele>1037.85819904</ele>
        <time>2019-01-24T09:18:38.989Z</time>
      </trkpt>
      <trkpt lat="42.13555" lon="2.4033">
        <ele>1036.85779968</ele>
        <time>2019-01-24T09:18:43.991Z</time>
      </trkpt>
      <trkpt lat="42.1356" lon="2.40341">
        <ele>1036.05779968</ele>
        <time>2019-01-24T09:18:47.991Z</time>
      </trkpt>
      <trkpt lat="42.13565" lon="2.40354">
        <ele>1034.1368928548</ele>
        <time>2019-01-24T09:18:52.989Z</time>
      </trkpt>
      <trkpt lat="42.13572" lon="2.40363">
        <ele>1032.5535118327</ele>
        <time>2019-01-24T09:18:56.991Z</time>
      </trkpt>
      <trkpt lat="42.13579" lon="2.40373">
        <ele>1030.6825120105</ele>
        <time>2019-01-24T09:19:00.996Z</time>
      </trkpt>
      <trkpt lat="42.13586" lon="2.40382">
        <ele>1028.1546988569</ele>
        <time>2019-01-24T09:19:05.996Z</time>
      </trkpt>
      <trkpt lat="42.13591" lon="2.40394">
        <ele>1026.65840128</ele>
        <time>2019-01-24T09:19:09.988Z</time>
      </trkpt>
      <trkpt lat="42.13598" lon="2.40404">
        <ele>1025.456</ele>
        <time>2019-01-24T09:19:16.000Z</time>
      </trkpt>
      <trkpt lat="42.13603" lon="2.40417">
        <ele>1024.3404035766</ele>
        <time>2019-01-24T09:19:19.990Z</time>
      </trkpt>
      <trkpt lat="42.13611" lon="2.40425">
        <ele>1020.9647966887</ele>
        <time>2019-01-24T09:19:28.989Z</time>
      </trkpt>
      <trkpt lat="42.13621" lon="2.40427">
        <ele>1020.2368637219</ele>
        <time>2019-01-24T09:19:35.999Z</time>
      </trkpt>
      <trkpt lat="42.1363" lon="2.40432">
        <ele>1020</ele>
        <time>2019-01-24T09:19:41.002Z</time>
      </trkpt>
      <trkpt lat="42.13641" lon="2.40435">
        <ele>1020</ele>
        <time>2019-01-24T09:19:44.989Z</time>
      </trkpt>
      <trkpt lat="42.1365" lon="2.4044">
        <ele>1020</ele>
        <time>2019-01-24T09:19:54.989Z</time>
      </trkpt>
      <trkpt lat="42.13659" lon="2.40444">
        <ele>1019.65860096</ele>
        <time>2019-01-24T09:19:59.987Z</time>
      </trkpt>
      <trkpt lat="42.13668" lon="2.40444">
        <ele>1018.65819904</ele>
        <time>2019-01-24T09:20:04.989Z</time>
      </trkpt>
      <trkpt lat="42.13679" lon="2.40439">
        <ele>1017.6691869767</ele>
        <time>2019-01-24T09:20:09.987Z</time>
      </trkpt>
      <trkpt lat="42.1369" lon="2.40438">
        <ele>1016.8937996899</ele>
        <time>2019-01-24T09:20:13.988Z</time>
      </trkpt>
      <trkpt lat="42.137" lon="2.40438">
        <ele>1016.1184099225</ele>
        <time>2019-01-24T09:20:17.989Z</time>
      </trkpt>
      <trkpt lat="42.13709" lon="2.40441">
        <ele>1014.2494809917</ele>
        <time>2019-01-24T09:20:21.989Z</time>
      </trkpt>
      <trkpt lat="42.13719" lon="2.40441">
        <ele>1011.6673520661</ele>
        <time>2019-01-24T09:20:26.988Z</time>
      </trkpt>
      <trkpt lat="42.13729" lon="2.40443">
        <ele>1009.88760192</ele>
        <time>2019-01-24T09:20:31.988Z</time>
      </trkpt>
      <trkpt lat="42.13739" lon="2.4044">
        <ele>1008.08760192</ele>
        <time>2019-01-24T09:20:37.988Z</time>
      </trkpt>
      <trkpt lat="42.13749" lon="2.40446">
        <ele>1007.42920064</ele>
        <time>2019-01-24T09:20:43.988Z</time>
      </trkpt>
      <trkpt lat="42.13759" lon="2.40448">
        <ele>1006.6585403903</ele>
        <time>2019-01-24T09:20:49.989Z</time>
      </trkpt>
      <trkpt lat="42.13767" lon="2.40456">
        <ele>1004.3713715727</ele>
        <time>2019-01-24T09:21:12.000Z</time>
      </trkpt>
      <trkpt lat="42.13774" lon="2.40465">
        <ele>1004.7706712246</ele>
        <time>2019-01-24T09:21:15.989Z</time>
      </trkpt>
      <trkpt lat="42.13782" lon="2.40475">
        <ele>1005</ele>
        <time>2019-01-24T09:21:22.988Z</time>
      </trkpt>
      <trkpt lat="42.13792" lon="2.40482">
        <ele>1005</ele>
        <time>2019-01-24T09:21:28.000Z</time>
      </trkpt>
      <trkpt lat="42.13803" lon="2.40484">
        <ele>1000.3323981439</ele>
        <time>2019-01-24T09:21:34.988Z</time>
      </trkpt>
      <trkpt lat="42.13813" lon="2.40489">
        <ele>997.17102669069</ele>
        <time>2019-01-24T09:21:39.988Z</time>
      </trkpt>
      <trkpt lat="42.13822" lon="2.40491">
        <ele>995.1534183318</ele>
        <time>2019-01-24T09:21:43.999Z</time>
      </trkpt>
      <trkpt lat="42.13831" lon="2.405">
        <ele>993.14637576089</ele>
        <time>2019-01-24T09:21:47.989Z</time>
      </trkpt>
      <trkpt lat="42.1384" lon="2.40507">
        <ele>992.2659420097</ele>
        <time>2019-01-24T09:21:51.987Z</time>
      </trkpt>
      <trkpt lat="42.13849" lon="2.40513">
        <ele>991.27584362719</ele>
        <time>2019-01-24T09:21:56.987Z</time>
      </trkpt>
      <trkpt lat="42.13858" lon="2.40516">
        <ele>990.06848521599</ele>
        <time>2019-01-24T09:22:02.991Z</time>
      </trkpt>
      <trkpt lat="42.13868" lon="2.40519">
        <ele>988.6390016</ele>
        <time>2019-01-24T09:22:09.002Z</time>
      </trkpt>
      <trkpt lat="42.13878" lon="2.4052">
        <ele>986.1385024</ele>
        <time>2019-01-24T09:22:14.003Z</time>
      </trkpt>
      <trkpt lat="42.13887" lon="2.40524">
        <ele>983.48790144</ele>
        <time>2019-01-24T09:22:19.987Z</time>
      </trkpt>
      <trkpt lat="42.13895" lon="2.40533">
        <ele>982.58790144</ele>
        <time>2019-01-24T09:22:22.987Z</time>
      </trkpt>
      <trkpt lat="42.13904" lon="2.40541">
        <ele>981.08669952</ele>
        <time>2019-01-24T09:22:27.991Z</time>
      </trkpt>
      <trkpt lat="42.1391" lon="2.40552">
        <ele>980.52909952</ele>
        <time>2019-01-24T09:22:32.989Z</time>
      </trkpt>
      <trkpt lat="42.13919" lon="2.40563">
        <ele>980.128</ele>
        <time>2019-01-24T09:22:37.000Z</time>
      </trkpt>
      <trkpt lat="42.13928" lon="2.40574">
        <ele>979.45819904</ele>
        <time>2019-01-24T09:22:40.989Z</time>
      </trkpt>
      <trkpt lat="42.13937" lon="2.40583">
        <ele>978.85619968</ele>
        <time>2019-01-24T09:22:43.999Z</time>
      </trkpt>
      <trkpt lat="42.13944" lon="2.40594">
        <ele>977.85519872</ele>
        <time>2019-01-24T09:22:49.004Z</time>
      </trkpt>
      <trkpt lat="42.1395" lon="2.40603">
        <ele>977.05799936</ele>
        <time>2019-01-24T09:22:52.990Z</time>
      </trkpt>
      <trkpt lat="42.13953" lon="2.40617">
        <ele>976.05840128</ele>
        <time>2019-01-24T09:22:57.988Z</time>
      </trkpt>
      <trkpt lat="42.13955" lon="2.40631">
        <ele>975.25799936</ele>
        <time>2019-01-24T09:23:01.990Z</time>
      </trkpt>
      <trkpt lat="42.13961" lon="2.40643">
        <ele>974.656</ele>
        <time>2019-01-24T09:23:05.000Z</time>
      </trkpt>
      <trkpt lat="42.13966" lon="2.40659">
        <ele>974.056</ele>
        <time>2019-01-24T09:23:08.000Z</time>
      </trkpt>
      <trkpt lat="42.1397" lon="2.40672">
        <ele>974</ele>
        <time>2019-01-24T09:23:11.990Z</time>
      </trkpt>
      <trkpt lat="42.13971" lon="2.40685">
        <ele>974</ele>
        <time>2019-01-24T09:23:17.996Z</time>
      </trkpt>
      <trkpt lat="42.13975" lon="2.40698">
        <ele>973.64265118698</ele>
        <time>2019-01-24T09:23:22.000Z</time>
      </trkpt>
      <trkpt lat="42.13979" lon="2.4071">
        <ele>973.16320804249</ele>
        <time>2019-01-24T09:23:26.991Z</time>
      </trkpt>
      <trkpt lat="42.13981" lon="2.40724">
        <ele>971.6369112369</ele>
        <time>2019-01-24T09:23:31.958Z</time>
      </trkpt>
      <trkpt lat="42.13985" lon="2.40737">
        <ele>969.53764253176</ele>
        <time>2019-01-24T09:23:36.991Z</time>
      </trkpt>
      <trkpt lat="42.13985" lon="2.40751">
        <ele>967.89583238095</ele>
        <time>2019-01-24T09:23:41.990Z</time>
      </trkpt>
      <trkpt lat="42.13983" lon="2.40763">
        <ele>966.40892952381</ele>
        <time>2019-01-24T09:23:46.986Z</time>
      </trkpt>
      <trkpt lat="42.1398" lon="2.40776">
        <ele>965.20433419355</ele>
        <time>2019-01-24T09:23:50.991Z</time>
      </trkpt>
      <trkpt lat="42.13981" lon="2.40791">
        <ele>963.69253935484</ele>
        <time>2019-01-24T09:23:55.990Z</time>
      </trkpt>
      <trkpt lat="42.13978" lon="2.40804">
        <ele>962.65928980237</ele>
        <time>2019-01-24T09:24:00.004Z</time>
      </trkpt>
      <trkpt lat="42.13974" lon="2.40816">
        <ele>961.67272853755</ele>
        <time>2019-01-24T09:24:04.996Z</time>
      </trkpt>
      <trkpt lat="42.13965" lon="2.40823">
        <ele>960.83811942184</ele>
        <time>2019-01-24T09:24:10.001Z</time>
      </trkpt>
      <trkpt lat="42.13958" lon="2.40829">
        <ele>960.43518719844</ele>
        <time>2019-01-24T09:24:13.986Z</time>
      </trkpt>
      <trkpt lat="42.13951" lon="2.40837">
        <ele>960.03073812926</ele>
        <time>2019-01-24T09:24:17.986Z</time>
      </trkpt>
      <trkpt lat="42.13946" lon="2.4085">
        <ele>959.05905807918</ele>
        <time>2019-01-24T09:24:22.990Z</time>
      </trkpt>
      <trkpt lat="42.13942" lon="2.4086">
        <ele>958.05825727864</ele>
        <time>2019-01-24T09:24:27.989Z</time>
      </trkpt>
      <trkpt lat="42.13937" lon="2.40874">
        <ele>956.64</ele>
        <time>2019-01-24T09:24:31.000Z</time>
      </trkpt>
      <trkpt lat="42.13931" lon="2.40886">
        <ele>955.1470016</ele>
        <time>2019-01-24T09:24:33.986Z</time>
      </trkpt>
      <trkpt lat="42.13924" lon="2.40898">
        <ele>953.1395008</ele>
        <time>2019-01-24T09:24:38.001Z</time>
      </trkpt>
      <trkpt lat="42.13918" lon="2.40909">
        <ele>952.18982183484</ele>
        <time>2019-01-24T09:24:40.986Z</time>
      </trkpt>
      <trkpt lat="42.13912" lon="2.4092">
        <ele>950.99101828917</ele>
        <time>2019-01-24T09:24:44.990Z</time>
      </trkpt>
      <trkpt lat="42.13908" lon="2.40935">
        <ele>949.49168448365</ele>
        <time>2019-01-24T09:24:49.991Z</time>
      </trkpt>
      <trkpt lat="42.13901" lon="2.40946">
        <ele>948.28957902338</ele>
        <time>2019-01-24T09:24:53.990Z</time>
      </trkpt>
      <trkpt lat="42.13899" lon="2.4096">
        <ele>946.14732063492</ele>
        <time>2019-01-24T09:24:59.999Z</time>
      </trkpt>
      <trkpt lat="42.13898" lon="2.40975">
        <ele>943.67113015873</ele>
        <time>2019-01-24T09:25:04.991Z</time>
      </trkpt>
      <trkpt lat="42.13893" lon="2.40988">
        <ele>942</ele>
        <time>2019-01-24T09:25:09.990Z</time>
      </trkpt>
      <trkpt lat="42.13887" lon="2.41001">
        <ele>942</ele>
        <time>2019-01-24T09:25:13.996Z</time>
      </trkpt>
      <trkpt lat="42.13884" lon="2.41015">
        <ele>942</ele>
        <time>2019-01-24T09:25:17.988Z</time>
      </trkpt>
      <trkpt lat="42.13881" lon="2.41027">
        <ele>941.63046196743</ele>
        <time>2019-01-24T09:25:21.988Z</time>
      </trkpt>
      <trkpt lat="42.1388" lon="2.4104">
        <ele>941.02895777408</ele>
        <time>2019-01-24T09:25:27.991Z</time>
      </trkpt>
      <trkpt lat="42.13877" lon="2.41053">
        <ele>938.67472700485</ele>
        <time>2019-01-24T09:25:32.991Z</time>
      </trkpt>
      <trkpt lat="42.13876" lon="2.41067">
        <ele>936.20779473494</ele>
        <time>2019-01-24T09:25:37.989Z</time>
      </trkpt>
      <trkpt lat="42.13877" lon="2.41081">
        <ele>934.9115490459</ele>
        <time>2019-01-24T09:25:41.991Z</time>
      </trkpt>
      <trkpt lat="42.13875" lon="2.41093">
        <ele>933.69574396896</ele>
        <time>2019-01-24T09:25:45.991Z</time>
      </trkpt>
      <trkpt lat="42.13876" lon="2.41108">
        <ele>931.65890936465</ele>
        <time>2019-01-24T09:25:50.989Z</time>
      </trkpt>
      <trkpt lat="42.13874" lon="2.4112">
        <ele>929.6777240854</ele>
        <time>2019-01-24T09:25:54.991Z</time>
      </trkpt>
      <trkpt lat="42.13874" lon="2.41133">
        <ele>927.73795179174</ele>
        <time>2019-01-24T09:26:00.990Z</time>
      </trkpt>
      <trkpt lat="42.13872" lon="2.41146">
        <ele>927.33624460883</ele>
        <time>2019-01-24T09:26:04.991Z</time>
      </trkpt>
      <trkpt lat="42.1387" lon="2.41157">
        <ele>927.03513964355</ele>
        <time>2019-01-24T09:26:07.990Z</time>
      </trkpt>
      <trkpt lat="42.13864" lon="2.4117">
        <ele>926.26579298782</ele>
        <time>2019-01-24T09:26:11.989Z</time>
      </trkpt>
      <trkpt lat="42.13859" lon="2.41181">
        <ele>925.46056276181</ele>
        <time>2019-01-24T09:26:15.991Z</time>
      </trkpt>
      <trkpt lat="42.13855" lon="2.41195">
        <ele>924.82899968</ele>
        <time>2019-01-24T09:26:19.990Z</time>
      </trkpt>
      <trkpt lat="42.13852" lon="2.4121">
        <ele>924.42790016</ele>
        <time>2019-01-24T09:26:24.001Z</time>
      </trkpt>
      <trkpt lat="42.13849" lon="2.41223">
        <ele>924.12889984</ele>
        <time>2019-01-24T09:26:26.991Z</time>
      </trkpt>
      <trkpt lat="42.13849" lon="2.41237">
        <ele>923.73714817082</ele>
        <time>2019-01-24T09:26:30.990Z</time>
      </trkpt>
      <trkpt lat="42.13846" lon="2.4125">
        <ele>923.34956404281</ele>
        <time>2019-01-24T09:26:34.986Z</time>
      </trkpt>
      <trkpt lat="42.13843" lon="2.41263">
        <ele>922.8759702654</ele>
        <time>2019-01-24T09:26:38.996Z</time>
      </trkpt>
      <trkpt lat="42.13839" lon="2.41277">
        <ele>921.65641362536</ele>
        <time>2019-01-24T09:26:42.988Z</time>
      </trkpt>
      <trkpt lat="42.13836" lon="2.41289">
        <ele>920.4338068815</ele>
        <time>2019-01-24T09:26:46.990Z</time>
      </trkpt>
      <trkpt lat="42.13832" lon="2.41301">
        <ele>919.37079936</ele>
        <time>2019-01-24T09:27:31.988Z</time>
      </trkpt>
      <trkpt lat="42.13833" lon="2.41314">
        <ele>919.97090048</ele>
        <time>2019-01-24T09:27:37.989Z</time>
      </trkpt>
      <trkpt lat="42.13831" lon="2.41327">
        <ele>916.1454976</ele>
        <time>2019-01-24T09:27:45.989Z</time>
      </trkpt>
      <trkpt lat="42.13829" lon="2.41339">
        <ele>914.72940032</ele>
        <time>2019-01-24T09:27:50.986Z</time>
      </trkpt>
      <trkpt lat="42.13827" lon="2.41352">
        <ele>914.12909952</ele>
        <time>2019-01-24T09:27:56.989Z</time>
      </trkpt>
      <trkpt lat="42.13825" lon="2.41364">
        <ele>912.28370048</ele>
        <time>2019-01-24T09:28:54.001Z</time>
      </trkpt>
      <trkpt lat="42.13821" lon="2.41375">
        <ele>911.36812254439</ele>
        <time>2019-01-24T09:29:01.987Z</time>
      </trkpt>
      <trkpt lat="42.13816" lon="2.41385">
        <ele>912.06509952</ele>
        <time>2019-01-24T09:29:09.001Z</time>
      </trkpt>
      <trkpt lat="42.13809" lon="2.41394">
        <ele>912.76359936</ele>
        <time>2019-01-24T09:29:15.986Z</time>
      </trkpt>
      <trkpt lat="42.13802" lon="2.41403">
        <ele>914.13816657021</ele>
        <time>2019-01-24T09:29:24.001Z</time>
      </trkpt>
      <trkpt lat="42.13795" lon="2.41413">
        <ele>915.16841039871</ele>
        <time>2019-01-24T09:29:29.986Z</time>
      </trkpt>
      <trkpt lat="42.13789" lon="2.41422">
        <ele>915.85942739883</ele>
        <time>2019-01-24T09:29:36.986Z</time>
      </trkpt>
      <trkpt lat="42.13778" lon="2.41425">
        <ele>916</ele>
        <time>2019-01-24T09:29:44.000Z</time>
      </trkpt>
      <trkpt lat="42.13769" lon="2.4143">
        <ele>916</ele>
        <time>2019-01-24T09:29:46.986Z</time>
      </trkpt>
      <trkpt lat="42.13764" lon="2.41442">
        <ele>915.51762280071</ele>
        <time>2019-01-24T09:29:51.016Z</time>
      </trkpt>
      <trkpt lat="42.13759" lon="2.41453">
        <ele>914.73148531866</ele>
        <time>2019-01-24T09:29:54.986Z</time>
      </trkpt>
      <trkpt lat="42.13753" lon="2.41464">
        <ele>913.96765673455</ele>
        <time>2019-01-24T09:29:58.996Z</time>
      </trkpt>
      <trkpt lat="42.13747" lon="2.41473">
        <ele>913.55926323333</ele>
        <time>2019-01-24T09:30:02.986Z</time>
      </trkpt>
      <trkpt lat="42.13738" lon="2.41478">
        <ele>912.94394695619</ele>
        <time>2019-01-24T09:30:09.001Z</time>
      </trkpt>
      <trkpt lat="42.13728" lon="2.41479">
        <ele>912.53855559274</ele>
        <time>2019-01-24T09:30:12.986Z</time>
      </trkpt>
      <trkpt lat="42.13718" lon="2.41481">
        <ele>912.13163812602</ele>
        <time>2019-01-24T09:30:16.986Z</time>
      </trkpt>
      <trkpt lat="42.13707" lon="2.41486">
        <ele>911.62940032</ele>
        <time>2019-01-24T09:30:21.986Z</time>
      </trkpt>
      <trkpt lat="42.13699" lon="2.41492">
        <ele>910.33505482898</ele>
        <time>2019-01-24T09:31:04.986Z</time>
      </trkpt>
      <trkpt lat="42.13689" lon="2.41497">
        <ele>910</ele>
        <time>2019-01-24T09:31:09.001Z</time>
      </trkpt>
      <trkpt lat="42.13678" lon="2.41497">
        <ele>910</ele>
        <time>2019-01-24T09:31:12.991Z</time>
      </trkpt>
      <trkpt lat="42.13669" lon="2.41496">
        <ele>910</ele>
        <time>2019-01-24T09:31:16.986Z</time>
      </trkpt>
      <trkpt lat="42.13659" lon="2.41496">
        <ele>910</ele>
        <time>2019-01-24T09:31:20.991Z</time>
      </trkpt>
      <trkpt lat="42.13649" lon="2.41492">
        <ele>910</ele>
        <time>2019-01-24T09:31:25.990Z</time>
      </trkpt>
      <trkpt lat="42.13638" lon="2.41489">
        <ele>910.53497928854</ele>
        <time>2019-01-24T09:31:30.987Z</time>
      </trkpt>
      <trkpt lat="42.13628" lon="2.41488">
        <ele>911.32628490119</ele>
        <time>2019-01-24T09:31:34.991Z</time>
      </trkpt>
      <trkpt lat="42.13618" lon="2.41484">
        <ele>911.87914882591</ele>
        <time>2019-01-24T09:31:38.997Z</time>
      </trkpt>
      <trkpt lat="42.1361" lon="2.41477">
        <ele>911.07084955466</ele>
        <time>2019-01-24T09:31:42.990Z</time>
      </trkpt>
      <trkpt lat="42.13603" lon="2.4147">
        <ele>910.05931271255</ele>
        <time>2019-01-24T09:31:47.987Z</time>
      </trkpt>
      <trkpt lat="42.13595" lon="2.41461">
        <ele>910.46986061805</ele>
        <time>2019-01-24T09:31:52.988Z</time>
      </trkpt>
      <trkpt lat="42.13593" lon="2.41448">
        <ele>910.86896104178</ele>
        <time>2019-01-24T09:31:56.987Z</time>
      </trkpt>
      <trkpt lat="42.13592" lon="2.41436">
        <ele>911.36650011388</ele>
        <time>2019-01-24T09:32:01.987Z</time>
      </trkpt>
      <trkpt lat="42.13591" lon="2.41422">
        <ele>911.86351832271</ele>
        <time>2019-01-24T09:32:06.987Z</time>
      </trkpt>
      <trkpt lat="42.13592" lon="2.41409">
        <ele>912.26481806452</ele>
        <time>2019-01-24T09:32:10.987Z</time>
      </trkpt>
      <trkpt lat="42.13591" lon="2.41395">
        <ele>912.66804387097</ele>
        <time>2019-01-24T09:32:14.987Z</time>
      </trkpt>
      <trkpt lat="42.13587" lon="2.41383">
        <ele>913.07184050049</ele>
        <time>2019-01-24T09:32:19.002Z</time>
      </trkpt>
      <trkpt lat="42.13579" lon="2.41373">
        <ele>913.46825853716</ele>
        <time>2019-01-24T09:32:22.986Z</time>
      </trkpt>
      <trkpt lat="42.1357" lon="2.41369">
        <ele>913.86636795745</ele>
        <time>2019-01-24T09:32:26.987Z</time>
      </trkpt>
      <trkpt lat="42.13564" lon="2.41359">
        <ele>913.7329650708</ele>
        <time>2019-01-24T09:32:30.987Z</time>
      </trkpt>
      <trkpt lat="42.13554" lon="2.41352">
        <ele>913.23035232793</ele>
        <time>2019-01-24T09:32:35.988Z</time>
      </trkpt>
      <trkpt lat="42.13546" lon="2.41344">
        <ele>913</ele>
        <time>2019-01-24T09:32:40.987Z</time>
      </trkpt>
      <trkpt lat="42.13537" lon="2.41341">
        <ele>913.12088289157</ele>
        <time>2019-01-24T09:32:49.002Z</time>
      </trkpt>
      <trkpt lat="42.1353" lon="2.41331">
        <ele>914.92529991968</ele>
        <time>2019-01-24T09:32:57.988Z</time>
      </trkpt>
      <trkpt lat="42.13524" lon="2.41319">
        <ele>915</ele>
        <time>2019-01-24T09:33:03.999Z</time>
      </trkpt>
      <trkpt lat="42.13521" lon="2.41307">
        <ele>915</ele>
        <time>2019-01-24T09:33:09.989Z</time>
      </trkpt>
      <trkpt lat="42.13517" lon="2.41295">
        <ele>915</ele>
        <time>2019-01-24T09:33:16.987Z</time>
      </trkpt>
      <trkpt lat="42.13511" lon="2.41285">
        <ele>915.94139904</ele>
        <time>2019-01-24T09:33:22.987Z</time>
      </trkpt>
      <trkpt lat="42.13505" lon="2.41275">
        <ele>916.94159872</ele>
        <time>2019-01-24T09:33:27.988Z</time>
      </trkpt>
      <trkpt lat="42.135" lon="2.41264">
        <ele>919.11532998671</ele>
        <time>2019-01-24T09:33:38.998Z</time>
      </trkpt>
      <trkpt lat="42.13493" lon="2.41255">
        <ele>920.3315746864</ele>
        <time>2019-01-24T09:33:44.988Z</time>
      </trkpt>
      <trkpt lat="42.13489" lon="2.41243">
        <ele>921.94045888206</ele>
        <time>2019-01-24T09:33:52.987Z</time>
      </trkpt>
      <trkpt lat="42.13482" lon="2.41231">
        <ele>923</ele>
        <time>2019-01-24T09:34:01.987Z</time>
      </trkpt>
      <trkpt lat="42.13476" lon="2.4122">
        <ele>923</ele>
        <time>2019-01-24T09:34:05.987Z</time>
      </trkpt>
      <trkpt lat="42.13471" lon="2.41209">
        <ele>923</ele>
        <time>2019-01-24T09:34:09.987Z</time>
      </trkpt>
      <trkpt lat="42.13463" lon="2.412">
        <ele>923</ele>
        <time>2019-01-24T09:34:15.987Z</time>
      </trkpt>
      <trkpt lat="42.13455" lon="2.41194">
        <ele>923</ele>
        <time>2019-01-24T09:34:21.987Z</time>
      </trkpt>
      <trkpt lat="42.13446" lon="2.41194">
        <ele>923.06923781055</ele>
        <time>2019-01-24T09:34:29.000Z</time>
      </trkpt>
      <trkpt lat="42.13441" lon="2.41183">
        <ele>923.66152387247</ele>
        <time>2019-01-24T09:34:34.988Z</time>
      </trkpt>
      <trkpt lat="42.13434" lon="2.41174">
        <ele>924</ele>
        <time>2019-01-24T09:34:39.990Z</time>
      </trkpt>
      <trkpt lat="42.13426" lon="2.41167">
        <ele>924</ele>
        <time>2019-01-24T09:34:46.987Z</time>
      </trkpt>
      <trkpt lat="42.13418" lon="2.41159">
        <ele>924.36630387352</ele>
        <time>2019-01-24T09:34:51.987Z</time>
      </trkpt>
      <trkpt lat="42.13411" lon="2.41152">
        <ele>925.36305619433</ele>
        <time>2019-01-24T09:35:01.987Z</time>
      </trkpt>
      <trkpt lat="42.13402" lon="2.41148">
        <ele>926.52878127728</ele>
        <time>2019-01-24T09:35:10.990Z</time>
      </trkpt>
      <trkpt lat="42.13393" lon="2.41158">
        <ele>928.09682048104</ele>
        <time>2019-01-24T09:35:19.002Z</time>
      </trkpt>
      <trkpt lat="42.13386" lon="2.41166">
        <ele>928.91425578199</ele>
        <time>2019-01-24T09:35:22.987Z</time>
      </trkpt>
      <trkpt lat="42.13377" lon="2.41173">
        <ele>929.42240256</ele>
        <time>2019-01-24T09:35:29.002Z</time>
      </trkpt>
      <trkpt lat="42.13367" lon="2.41179">
        <ele>925.424</ele>
        <time>2019-01-24T09:35:34.000Z</time>
      </trkpt>
      <trkpt lat="42.13358" lon="2.41188">
        <ele>921.1449984</ele>
        <time>2019-01-24T09:35:39.990Z</time>
      </trkpt>
      <trkpt lat="42.13349" lon="2.4119">
        <ele>918.6465024</ele>
        <time>2019-01-24T09:35:44.987Z</time>
      </trkpt>
      <trkpt lat="42.1334" lon="2.41197">
        <ele>916.73277432822</ele>
        <time>2019-01-24T09:35:50.987Z</time>
      </trkpt>
      <trkpt lat="42.13332" lon="2.41208">
        <ele>916.23889381683</ele>
        <time>2019-01-24T09:35:55.990Z</time>
      </trkpt>
      <trkpt lat="42.13324" lon="2.41215">
        <ele>916</ele>
        <time>2019-01-24T09:36:00.990Z</time>
      </trkpt>
      <trkpt lat="42.13314" lon="2.41219">
        <ele>916</ele>
        <time>2019-01-24T09:36:05.990Z</time>
      </trkpt>
      <trkpt lat="42.13305" lon="2.41222">
        <ele>915.4314516129</ele>
        <time>2019-01-24T09:36:14.000Z</time>
      </trkpt>
      <trkpt lat="42.13295" lon="2.41228">
        <ele>914.82930048</ele>
        <time>2019-01-24T09:36:19.987Z</time>
      </trkpt>
      <trkpt lat="42.13286" lon="2.41233">
        <ele>914.42780032</ele>
        <time>2019-01-24T09:36:24.002Z</time>
      </trkpt>
      <trkpt lat="42.13277" lon="2.41243">
        <ele>914.12930048</ele>
        <time>2019-01-24T09:36:26.987Z</time>
      </trkpt>
      <trkpt lat="42.13269" lon="2.41251">
        <ele>913.82930048</ele>
        <time>2019-01-24T09:36:29.987Z</time>
      </trkpt>
      <trkpt lat="42.13262" lon="2.41258">
        <ele>913.52930048</ele>
        <time>2019-01-24T09:36:32.987Z</time>
      </trkpt>
      <trkpt lat="42.13255" lon="2.41266">
        <ele>913.22930048</ele>
        <time>2019-01-24T09:36:35.987Z</time>
      </trkpt>
      <trkpt lat="42.13247" lon="2.41274">
        <ele>913.54139904</ele>
        <time>2019-01-24T09:36:40.987Z</time>
      </trkpt>
      <trkpt lat="42.13237" lon="2.41282">
        <ele>914.94139904</ele>
        <time>2019-01-24T09:36:47.987Z</time>
      </trkpt>
      <trkpt lat="42.1323" lon="2.41289">
        <ele>916.8579906007</ele>
        <time>2019-01-24T09:36:52.990Z</time>
      </trkpt>
      <trkpt lat="42.13222" lon="2.41295">
        <ele>918.21975660555</ele>
        <time>2019-01-24T09:37:00.987Z</time>
      </trkpt>
      <trkpt lat="42.13213" lon="2.41296">
        <ele>916.39604899014</ele>
        <time>2019-01-24T09:37:06.987Z</time>
      </trkpt>
      <trkpt lat="42.13202" lon="2.41299">
        <ele>916</ele>
        <time>2019-01-24T09:37:10.987Z</time>
      </trkpt>
      <trkpt lat="42.13192" lon="2.41304">
        <ele>916</ele>
        <time>2019-01-24T09:37:17.987Z</time>
      </trkpt>
      <trkpt lat="42.13184" lon="2.41299">
        <ele>915.32997029529</ele>
        <time>2019-01-24T09:37:24.987Z</time>
      </trkpt>
      <trkpt lat="42.13175" lon="2.41296">
        <ele>915.26996972333</ele>
        <time>2019-01-24T09:37:30.987Z</time>
      </trkpt>
      <trkpt lat="42.13165" lon="2.41292">
        <ele>915.77077116452</ele>
        <time>2019-01-24T09:37:35.990Z</time>
      </trkpt>
      <trkpt lat="42.13156" lon="2.4129">
        <ele>915.52930048</ele>
        <time>2019-01-24T09:37:42.987Z</time>
      </trkpt>
      <trkpt lat="42.13147" lon="2.41293">
        <ele>914.45914164528</ele>
        <time>2019-01-24T09:37:50.987Z</time>
      </trkpt>
      <trkpt lat="42.13137" lon="2.41292">
        <ele>911.45865755078</ele>
        <time>2019-01-24T09:38:05.989Z</time>
      </trkpt>
      <trkpt lat="42.13133" lon="2.41279">
        <ele>908.33597536919</ele>
        <time>2019-01-24T09:38:15.000Z</time>
      </trkpt>
      <trkpt lat="42.13128" lon="2.41269">
        <ele>905.53481250137</ele>
        <time>2019-01-24T09:38:22.000Z</time>
      </trkpt>
      <trkpt lat="42.13123" lon="2.41258">
        <ele>901.884</ele>
        <time>2019-01-24T09:38:32.000Z</time>
      </trkpt>
      <trkpt lat="42.13119" lon="2.41246">
        <ele>899.312</ele>
        <time>2019-01-24T09:38:40.000Z</time>
      </trkpt>
      <trkpt lat="42.13117" lon="2.41234">
        <ele>896.512</ele>
        <time>2019-01-24T09:38:47.000Z</time>
      </trkpt>
      <trkpt lat="42.13112" lon="2.41222">
        <ele>894.00396166086</ele>
        <time>2019-01-24T09:38:55.000Z</time>
      </trkpt>
      <trkpt lat="42.13112" lon="2.41209">
        <ele>891.90303153327</ele>
        <time>2019-01-24T09:39:02.000Z</time>
      </trkpt>
      <trkpt lat="42.13107" lon="2.41197">
        <ele>889.21538461539</ele>
        <time>2019-01-24T09:39:11.000Z</time>
      </trkpt>
      <trkpt lat="42.13104" lon="2.41183">
        <ele>887.19557784615</ele>
        <time>2019-01-24T09:39:18.002Z</time>
      </trkpt>
      <trkpt lat="42.13105" lon="2.4117">
        <ele>884.369064</ele>
        <time>2019-01-24T09:39:27.099Z</time>
      </trkpt>
      <trkpt lat="42.13099" lon="2.41156">
        <ele>882.14175783353</ele>
        <time>2019-01-24T09:39:32.986Z</time>
      </trkpt>
      <trkpt lat="42.131" lon="2.41144">
        <ele>879.27477065053</ele>
        <time>2019-01-24T09:39:41.989Z</time>
      </trkpt>
      <trkpt lat="42.13103" lon="2.41131">
        <ele>874.67591252358</ele>
        <time>2019-01-24T09:39:54.988Z</time>
      </trkpt>
      <trkpt lat="42.13106" lon="2.41118">
        <ele>872.2128382629</ele>
        <time>2019-01-24T09:40:00.986Z</time>
      </trkpt>
      <trkpt lat="42.13112" lon="2.41107">
        <ele>870.40621589768</ele>
        <time>2019-01-24T09:40:06.990Z</time>
      </trkpt>
      <trkpt lat="42.13118" lon="2.41097">
        <ele>868.53279643764</ele>
        <time>2019-01-24T09:40:11.986Z</time>
      </trkpt>
      <trkpt lat="42.13124" lon="2.41086">
        <ele>863.98820096</ele>
        <time>2019-01-24T09:40:24.986Z</time>
      </trkpt>
      <trkpt lat="42.13117" lon="2.41077">
        <ele>858.5582683871</ele>
        <time>2019-01-24T09:40:38.986Z</time>
      </trkpt>
      <trkpt lat="42.13122" lon="2.41064">
        <ele>852.90322580645</ele>
        <time>2019-01-24T09:40:47.000Z</time>
      </trkpt>
      <trkpt lat="42.13125" lon="2.4105">
        <ele>851.52987029926</ele>
        <time>2019-01-24T09:40:52.986Z</time>
      </trkpt>
      <trkpt lat="42.13129" lon="2.41039">
        <ele>851.03006914048</ele>
        <time>2019-01-24T09:40:57.989Z</time>
      </trkpt>
      <trkpt lat="42.13128" lon="2.41027">
        <ele>848.69042159494</ele>
        <time>2019-01-24T09:41:06.004Z</time>
      </trkpt>
      <trkpt lat="42.13126" lon="2.41014">
        <ele>845.68485670928</ele>
        <time>2019-01-24T09:41:16.004Z</time>
      </trkpt>
      <trkpt lat="42.13122" lon="2.41001">
        <ele>844.03103806401</ele>
        <time>2019-01-24T09:41:27.989Z</time>
      </trkpt>
      <trkpt lat="42.13119" lon="2.4099">
        <ele>843.5485555598</ele>
        <time>2019-01-24T09:41:32.986Z</time>
      </trkpt>
      <trkpt lat="42.13119" lon="2.40977">
        <ele>842.93312533333</ele>
        <time>2019-01-24T09:41:39.001Z</time>
      </trkpt>
      <trkpt lat="42.13119" lon="2.40964">
        <ele>841.060624</ele>
        <time>2019-01-24T09:41:47.989Z</time>
      </trkpt>
      <trkpt lat="42.13127" lon="2.40955">
        <ele>839.45973880831</ele>
        <time>2019-01-24T09:41:55.989Z</time>
      </trkpt>
      <trkpt lat="42.1313" lon="2.40943">
        <ele>837.28729856</ele>
        <time>2019-01-24T09:42:03.999Z</time>
      </trkpt>
      <trkpt lat="42.13128" lon="2.40929">
        <ele>835.49069085383</ele>
        <time>2019-01-24T09:42:09.986Z</time>
      </trkpt>
      <trkpt lat="42.13126" lon="2.40912">
        <ele>833.68888962918</ele>
        <time>2019-01-24T09:42:15.986Z</time>
      </trkpt>
      <trkpt lat="42.13121" lon="2.40901">
        <ele>831.88931969822</ele>
        <time>2019-01-24T09:42:24.000Z</time>
      </trkpt>
      <trkpt lat="42.13113" lon="2.40892">
        <ele>830.75051496873</ele>
        <time>2019-01-24T09:42:31.000Z</time>
      </trkpt>
      <trkpt lat="42.13104" lon="2.40886">
        <ele>830.02989655759</ele>
        <time>2019-01-24T09:42:37.990Z</time>
      </trkpt>
      <trkpt lat="42.13105" lon="2.40873">
        <ele>829.53534089961</ele>
        <time>2019-01-24T09:42:42.987Z</time>
      </trkpt>
      <trkpt lat="42.13105" lon="2.4086">
        <ele>828.43421020243</ele>
        <time>2019-01-24T09:42:54.000Z</time>
      </trkpt>
      <trkpt lat="42.13101" lon="2.40847">
        <ele>827.82882856334</ele>
        <time>2019-01-24T09:43:00.000Z</time>
      </trkpt>
      <trkpt lat="42.13099" lon="2.40833">
        <ele>827.12812808709</ele>
        <time>2019-01-24T09:43:07.000Z</time>
      </trkpt>
      <trkpt lat="42.13091" lon="2.40824">
        <ele>826.05880064</ele>
        <time>2019-01-24T09:43:12.986Z</time>
      </trkpt>
      <trkpt lat="42.13081" lon="2.40819">
        <ele>824.31040256</ele>
        <time>2019-01-24T09:43:20.004Z</time>
      </trkpt>
      <trkpt lat="42.13073" lon="2.40812">
        <ele>821.11760128</ele>
        <time>2019-01-24T09:43:27.986Z</time>
      </trkpt>
      <trkpt lat="42.13065" lon="2.40806">
        <ele>819.30059428571</ele>
        <time>2019-01-24T09:43:33.990Z</time>
      </trkpt>
      <trkpt lat="42.13056" lon="2.40806">
        <ele>817.83447612903</ele>
        <time>2019-01-24T09:43:40.002Z</time>
      </trkpt>
      <trkpt lat="42.13045" lon="2.4081">
        <ele>817.33064516129</ele>
        <time>2019-01-24T09:43:45.000Z</time>
      </trkpt>
      <trkpt lat="42.13036" lon="2.40814">
        <ele>816.63565120804</ele>
        <time>2019-01-24T09:43:52.000Z</time>
      </trkpt>
      <trkpt lat="42.13028" lon="2.40822">
        <ele>815.79162286688</ele>
        <time>2019-01-24T09:43:59.000Z</time>
      </trkpt>
      <trkpt lat="42.1302" lon="2.40836">
        <ele>812.5229824644</ele>
        <time>2019-01-24T09:44:07.000Z</time>
      </trkpt>
      <trkpt lat="42.13011" lon="2.40848">
        <ele>810.456</ele>
        <time>2019-01-24T09:44:16.000Z</time>
      </trkpt>
      <trkpt lat="42.13" lon="2.4085">
        <ele>809.72919936</ele>
        <time>2019-01-24T09:44:20.988Z</time>
      </trkpt>
      <trkpt lat="42.12991" lon="2.40843">
        <ele>809.32780032</ele>
        <time>2019-01-24T09:44:25.002Z</time>
      </trkpt>
      <trkpt lat="42.12983" lon="2.40836">
        <ele>809.172</ele>
        <time>2019-01-24T09:44:30.000Z</time>
      </trkpt>
      <trkpt lat="42.12974" lon="2.40837">
        <ele>810</ele>
        <time>2019-01-24T09:44:41.987Z</time>
      </trkpt>
      <trkpt lat="42.12973" lon="2.40849">
        <ele>810</ele>
        <time>2019-01-24T09:44:49.988Z</time>
      </trkpt>
      <trkpt lat="42.12971" lon="2.40865">
        <ele>810</ele>
        <time>2019-01-24T09:44:55.000Z</time>
      </trkpt>
      <trkpt lat="42.12973" lon="2.40877">
        <ele>808.42553048007</ele>
        <time>2019-01-24T09:45:01.000Z</time>
      </trkpt>
      <trkpt lat="42.12965" lon="2.40884">
        <ele>805.39209486781</ele>
        <time>2019-01-24T09:45:05.990Z</time>
      </trkpt>
      <trkpt lat="42.12958" lon="2.40897">
        <ele>803.92991081695</ele>
        <time>2019-01-24T09:45:08.990Z</time>
      </trkpt>
      <trkpt lat="42.12955" lon="2.4091">
        <ele>803.33662367988</ele>
        <time>2019-01-24T09:45:15.000Z</time>
      </trkpt>
      <trkpt lat="42.12951" lon="2.40923">
        <ele>801.709625545</ele>
        <time>2019-01-24T09:45:20.002Z</time>
      </trkpt>
      <trkpt lat="42.12947" lon="2.40937">
        <ele>796.84802371695</ele>
        <time>2019-01-24T09:45:26.000Z</time>
      </trkpt>
      <trkpt lat="42.12939" lon="2.40946">
        <ele>794.21067818916</ele>
        <time>2019-01-24T09:45:30.990Z</time>
      </trkpt>
      <trkpt lat="42.1293" lon="2.40945">
        <ele>792.75407580836</ele>
        <time>2019-01-24T09:45:35.991Z</time>
      </trkpt>
      <trkpt lat="42.12919" lon="2.40948">
        <ele>791.91713548387</ele>
        <time>2019-01-24T09:45:38.991Z</time>
      </trkpt>
      <trkpt lat="42.12909" lon="2.40951">
        <ele>791.11088516129</ele>
        <time>2019-01-24T09:45:42.990Z</time>
      </trkpt>
      <trkpt lat="42.12901" lon="2.40956">
        <ele>789.94979861873</ele>
        <time>2019-01-24T09:45:49.000Z</time>
      </trkpt>
      <trkpt lat="42.12893" lon="2.40962">
        <ele>789.43734947811</ele>
        <time>2019-01-24T09:45:54.104Z</time>
      </trkpt>
      <trkpt lat="42.12885" lon="2.40971">
        <ele>788.83900535332</ele>
        <time>2019-01-24T09:45:58.987Z</time>
      </trkpt>
      <trkpt lat="42.1288" lon="2.40982">
        <ele>787.30753649371</ele>
        <time>2019-01-24T09:46:04.000Z</time>
      </trkpt>
      <trkpt lat="42.12872" lon="2.40996">
        <ele>784.912</ele>
        <time>2019-01-24T09:46:11.000Z</time>
      </trkpt>
      <trkpt lat="42.12864" lon="2.41005">
        <ele>783.312</ele>
        <time>2019-01-24T09:46:15.000Z</time>
      </trkpt>
      <trkpt lat="42.12857" lon="2.41016">
        <ele>782.11720192</ele>
        <time>2019-01-24T09:46:17.987Z</time>
      </trkpt>
      <trkpt lat="42.12847" lon="2.41022">
        <ele>781.7382017868</ele>
        <time>2019-01-24T09:46:20.987Z</time>
      </trkpt>
      <trkpt lat="42.12838" lon="2.41025">
        <ele>781.44680885304</ele>
        <time>2019-01-24T09:46:24.000Z</time>
      </trkpt>
      <trkpt lat="42.12827" lon="2.41026">
        <ele>780.96169802845</ele>
        <time>2019-01-24T09:46:28.990Z</time>
      </trkpt>
      <trkpt lat="42.12819" lon="2.41031">
        <ele>780.54658421306</ele>
        <time>2019-01-24T09:46:33.000Z</time>
      </trkpt>
      <trkpt lat="42.12811" lon="2.41038">
        <ele>780.03033177993</ele>
        <time>2019-01-24T09:46:37.987Z</time>
      </trkpt>
      <trkpt lat="42.12802" lon="2.4104">
        <ele>780</ele>
        <time>2019-01-24T09:46:42.000Z</time>
      </trkpt>
      <trkpt lat="42.12792" lon="2.41046">
        <ele>779.18781096913</ele>
        <time>2019-01-24T09:46:50.990Z</time>
      </trkpt>
      <trkpt lat="42.12783" lon="2.41052">
        <ele>777.08990820057</ele>
        <time>2019-01-24T09:46:57.990Z</time>
      </trkpt>
      <trkpt lat="42.12775" lon="2.4106">
        <ele>777</ele>
        <time>2019-01-24T09:47:02.990Z</time>
      </trkpt>
      <trkpt lat="42.12766" lon="2.41067">
        <ele>776.65799936</ele>
        <time>2019-01-24T09:47:09.990Z</time>
      </trkpt>
      <trkpt lat="42.1276" lon="2.41076">
        <ele>775.256</ele>
        <time>2019-01-24T09:47:17.000Z</time>
      </trkpt>
      <trkpt lat="42.12751" lon="2.41085">
        <ele>774.056</ele>
        <time>2019-01-24T09:47:23.000Z</time>
      </trkpt>
      <trkpt lat="42.12743" lon="2.41094">
        <ele>773.456</ele>
        <time>2019-01-24T09:47:26.000Z</time>
      </trkpt>
      <trkpt lat="42.12743" lon="2.41108">
        <ele>767.97297138003</ele>
        <time>2019-01-24T09:47:40.000Z</time>
      </trkpt>
      <trkpt lat="42.12751" lon="2.41115">
        <ele>763</ele>
        <time>2019-01-24T09:47:51.000Z</time>
      </trkpt>
      <trkpt lat="42.12761" lon="2.41112">
        <ele>763</ele>
        <time>2019-01-24T09:47:57.000Z</time>
      </trkpt>
      <trkpt lat="42.12771" lon="2.41106">
        <ele>763</ele>
        <time>2019-01-24T09:48:01.002Z</time>
      </trkpt>
      <trkpt lat="42.1278" lon="2.411">
        <ele>763</ele>
        <time>2019-01-24T09:48:06.000Z</time>
      </trkpt>
      <trkpt lat="42.1279" lon="2.41096">
        <ele>762.73535401073</ele>
        <time>2019-01-24T09:48:11.000Z</time>
      </trkpt>
      <trkpt lat="42.12802" lon="2.41095">
        <ele>762.23030317919</ele>
        <time>2019-01-24T09:48:16.000Z</time>
      </trkpt>
      <trkpt lat="42.1281" lon="2.41089">
        <ele>761.828</ele>
        <time>2019-01-24T09:48:20.000Z</time>
      </trkpt>
      <trkpt lat="42.12819" lon="2.41079">
        <ele>761.228</ele>
        <time>2019-01-24T09:48:26.000Z</time>
      </trkpt>
      <trkpt lat="42.12827" lon="2.41072">
        <ele>760.66007905138</ele>
        <time>2019-01-24T09:48:30.000Z</time>
      </trkpt>
      <trkpt lat="42.12836" lon="2.41071">
        <ele>760.06719367589</ele>
        <time>2019-01-24T09:48:33.000Z</time>
      </trkpt>
      <trkpt lat="42.12847" lon="2.4107">
        <ele>759.0790513834</ele>
        <time>2019-01-24T09:48:38.000Z</time>
      </trkpt>
      <trkpt lat="42.12856" lon="2.41063">
        <ele>756.88027544486</ele>
        <time>2019-01-24T09:48:42.000Z</time>
      </trkpt>
      <trkpt lat="42.12865" lon="2.41062">
        <ele>755.11383831558</ele>
        <time>2019-01-24T09:48:45.000Z</time>
      </trkpt>
      <trkpt lat="42.12874" lon="2.4106">
        <ele>752.70927881849</ele>
        <time>2019-01-24T09:48:50.000Z</time>
      </trkpt>
      <trkpt lat="42.12885" lon="2.41058">
        <ele>751.67835030324</ele>
        <time>2019-01-24T09:48:55.000Z</time>
      </trkpt>
      <trkpt lat="42.12885" lon="2.41071">
        <ele>748.31331289263</ele>
        <time>2019-01-24T09:49:05.000Z</time>
      </trkpt>
      <trkpt lat="42.12879" lon="2.4108">
        <ele>746.26739225296</ele>
        <time>2019-01-24T09:49:11.987Z</time>
      </trkpt>
      <trkpt lat="42.12872" lon="2.41092">
        <ele>745.2766798419</ele>
        <time>2019-01-24T09:49:17.000Z</time>
      </trkpt>
      <trkpt lat="42.12863" lon="2.41102">
        <ele>744.74025965723</ele>
        <time>2019-01-24T09:49:21.000Z</time>
      </trkpt>
      <trkpt lat="42.12855" lon="2.41109">
        <ele>744.3404596493</ele>
        <time>2019-01-24T09:49:25.002Z</time>
      </trkpt>
      <trkpt lat="42.12847" lon="2.41116">
        <ele>744</ele>
        <time>2019-01-24T09:49:31.000Z</time>
      </trkpt>
      <trkpt lat="42.12838" lon="2.41123">
        <ele>744</ele>
        <time>2019-01-24T09:49:35.000Z</time>
      </trkpt>
      <trkpt lat="42.1283" lon="2.41131">
        <ele>744</ele>
        <time>2019-01-24T09:49:39.000Z</time>
      </trkpt>
      <trkpt lat="42.1282" lon="2.41138">
        <ele>744</ele>
        <time>2019-01-24T09:49:43.000Z</time>
      </trkpt>
      <trkpt lat="42.12811" lon="2.41144">
        <ele>744</ele>
        <time>2019-01-24T09:49:46.002Z</time>
      </trkpt>
      <trkpt lat="42.12803" lon="2.41154">
        <ele>743.94669234249</ele>
        <time>2019-01-24T09:49:48.990Z</time>
      </trkpt>
      <trkpt lat="42.12799" lon="2.41166">
        <ele>743.45310877097</ele>
        <time>2019-01-24T09:49:53.990Z</time>
      </trkpt>
      <trkpt lat="42.12795" lon="2.41177">
        <ele>742.74762111497</ele>
        <time>2019-01-24T09:49:58.988Z</time>
      </trkpt>
      <trkpt lat="42.12791" lon="2.41191">
        <ele>739.65546513454</ele>
        <time>2019-01-24T09:50:03.987Z</time>
      </trkpt>
      <trkpt lat="42.12787" lon="2.41205">
        <ele>737.17937934556</ele>
        <time>2019-01-24T09:50:07.990Z</time>
      </trkpt>
      <trkpt lat="42.12785" lon="2.41217">
        <ele>736.25674301914</ele>
        <time>2019-01-24T09:50:12.000Z</time>
      </trkpt>
      <trkpt lat="42.12778" lon="2.41229">
        <ele>735.0579414371</ele>
        <time>2019-01-24T09:50:18.000Z</time>
      </trkpt>
      <trkpt lat="42.12772" lon="2.41239">
        <ele>730.37717961892</ele>
        <time>2019-01-24T09:50:25.987Z</time>
      </trkpt>
      <trkpt lat="42.12763" lon="2.41247">
        <ele>728.184</ele>
        <time>2019-01-24T09:50:31.000Z</time>
      </trkpt>
      <trkpt lat="42.12754" lon="2.41251">
        <ele>726.684</ele>
        <time>2019-01-24T09:50:36.000Z</time>
      </trkpt>
      <trkpt lat="42.12745" lon="2.41258">
        <ele>723.99003055154</ele>
        <time>2019-01-24T09:50:45.000Z</time>
      </trkpt>
      <trkpt lat="42.12733" lon="2.41262">
        <ele>723</ele>
        <time>2019-01-24T09:50:49.000Z</time>
      </trkpt>
      <trkpt lat="42.1272" lon="2.41268">
        <ele>723</ele>
        <time>2019-01-24T09:50:52.988Z</time>
      </trkpt>
      <trkpt lat="42.12711" lon="2.41268">
        <ele>723</ele>
        <time>2019-01-24T09:50:57.988Z</time>
      </trkpt>
      <trkpt lat="42.127" lon="2.41267">
        <ele>722.42963013265</ele>
        <time>2019-01-24T09:51:03.988Z</time>
      </trkpt>
      <trkpt lat="42.12687" lon="2.41275">
        <ele>721.14</ele>
        <time>2019-01-24T09:51:10.000Z</time>
      </trkpt>
      <trkpt lat="42.12676" lon="2.41286">
        <ele>718.6459968</ele>
        <time>2019-01-24T09:51:14.988Z</time>
      </trkpt>
      <trkpt lat="42.12665" lon="2.41286">
        <ele>716.72909952</ele>
        <time>2019-01-24T09:51:20.989Z</time>
      </trkpt>
      <trkpt lat="42.12657" lon="2.41295">
        <ele>716.128</ele>
        <time>2019-01-24T09:51:27.000Z</time>
      </trkpt>
      <trkpt lat="42.12655" lon="2.41309">
        <ele>712.1449984</ele>
        <time>2019-01-24T09:51:35.990Z</time>
      </trkpt>
      <trkpt lat="42.12655" lon="2.41322">
        <ele>709.59384354515</ele>
        <time>2019-01-24T09:51:43.000Z</time>
      </trkpt>
      <trkpt lat="42.12647" lon="2.41332">
        <ele>707.03225903321</ele>
        <time>2019-01-24T09:51:50.000Z</time>
      </trkpt>
      <trkpt lat="42.1264" lon="2.41344">
        <ele>704.69325765936</ele>
        <time>2019-01-24T09:51:53.988Z</time>
      </trkpt>
      <trkpt lat="42.12632" lon="2.41351">
        <ele>702.93371770906</ele>
        <time>2019-01-24T09:51:56.988Z</time>
      </trkpt>
      <trkpt lat="42.12627" lon="2.41362">
        <ele>700.49442804491</ele>
        <time>2019-01-24T09:52:01.014Z</time>
      </trkpt>
      <trkpt lat="42.12624" lon="2.41374">
        <ele>697.41773498211</ele>
        <time>2019-01-24T09:52:05.988Z</time>
      </trkpt>
      <trkpt lat="42.12616" lon="2.41383">
        <ele>695.48760192</ele>
        <time>2019-01-24T09:52:09.988Z</time>
      </trkpt>
      <trkpt lat="42.12608" lon="2.41393">
        <ele>694.284</ele>
        <time>2019-01-24T09:52:14.000Z</time>
      </trkpt>
      <trkpt lat="42.12603" lon="2.41403">
        <ele>693.08429952</ele>
        <time>2019-01-24T09:52:17.999Z</time>
      </trkpt>
      <trkpt lat="42.12597" lon="2.41415">
        <ele>692.26282386502</ele>
        <time>2019-01-24T09:52:21.988Z</time>
      </trkpt>
      <trkpt lat="42.12593" lon="2.41428">
        <ele>691.26818943503</ele>
        <time>2019-01-24T09:52:26.991Z</time>
      </trkpt>
      <trkpt lat="42.12585" lon="2.41439">
        <ele>690.2046976</ele>
        <time>2019-01-24T09:52:30.991Z</time>
      </trkpt>
      <trkpt lat="42.12577" lon="2.41447">
        <ele>688.70499712</ele>
        <time>2019-01-24T09:52:35.990Z</time>
      </trkpt>
      <trkpt lat="42.12568" lon="2.41452">
        <ele>687.17102669069</ele>
        <time>2019-01-24T09:52:39.988Z</time>
      </trkpt>
      <trkpt lat="42.12559" lon="2.41457">
        <ele>684.65492690226</ele>
        <time>2019-01-24T09:52:44.990Z</time>
      </trkpt>
      <trkpt lat="42.12551" lon="2.41466">
        <ele>682.45654328281</ele>
        <time>2019-01-24T09:52:51.000Z</time>
      </trkpt>
      <trkpt lat="42.12544" lon="2.41476">
        <ele>681.6593395914</ele>
        <time>2019-01-24T09:52:54.990Z</time>
      </trkpt>
      <trkpt lat="42.12534" lon="2.41484">
        <ele>680.66006080959</ele>
        <time>2019-01-24T09:52:59.988Z</time>
      </trkpt>
      <trkpt lat="42.12525" lon="2.41493">
        <ele>679.65905756667</ele>
        <time>2019-01-24T09:53:04.988Z</time>
      </trkpt>
      <trkpt lat="42.12517" lon="2.41498">
        <ele>678.46283368494</ele>
        <time>2019-01-24T09:53:10.990Z</time>
      </trkpt>
      <trkpt lat="42.12512" lon="2.4151">
        <ele>674.73158240756</ele>
        <time>2019-01-24T09:53:23.990Z</time>
      </trkpt>
      <trkpt lat="42.12504" lon="2.41518">
        <ele>671.58699904</ele>
        <time>2019-01-24T09:53:32.990Z</time>
      </trkpt>
      <trkpt lat="42.12499" lon="2.41528">
        <ele>670.08760192</ele>
        <time>2019-01-24T09:53:37.988Z</time>
      </trkpt>
      <trkpt lat="42.12493" lon="2.41538">
        <ele>668.75879095518</ele>
        <time>2019-01-24T09:53:48.987Z</time>
      </trkpt>
      <trkpt lat="42.12486" lon="2.4155">
        <ele>665.93050629851</ele>
        <time>2019-01-24T09:53:55.987Z</time>
      </trkpt>
      <trkpt lat="42.12479" lon="2.41561">
        <ele>664.50302579229</ele>
        <time>2019-01-24T09:53:59.988Z</time>
      </trkpt>
      <trkpt lat="42.12472" lon="2.4157">
        <ele>661.95330012696</ele>
        <time>2019-01-24T09:54:09.000Z</time>
      </trkpt>
      <trkpt lat="42.12465" lon="2.4158">
        <ele>661.03959424637</ele>
        <time>2019-01-24T09:54:18.000Z</time>
      </trkpt>
      <trkpt lat="42.12459" lon="2.41593">
        <ele>660.53488357044</ele>
        <time>2019-01-24T09:54:22.990Z</time>
      </trkpt>
      <trkpt lat="42.12454" lon="2.41604">
        <ele>660.13053545174</ele>
        <time>2019-01-24T09:54:26.989Z</time>
      </trkpt>
      <trkpt lat="42.12447" lon="2.41614">
        <ele>659.63267318326</ele>
        <time>2019-01-24T09:54:31.990Z</time>
      </trkpt>
      <trkpt lat="42.12437" lon="2.41619">
        <ele>659.137623992</ele>
        <time>2019-01-24T09:54:36.990Z</time>
      </trkpt>
      <trkpt lat="42.12427" lon="2.41617">
        <ele>657.68131470307</ele>
        <time>2019-01-24T09:54:40.991Z</time>
      </trkpt>
      <trkpt lat="42.12417" lon="2.41617">
        <ele>655.15606054533</ele>
        <time>2019-01-24T09:54:45.991Z</time>
      </trkpt>
      <trkpt lat="42.12407" lon="2.4162">
        <ele>650.23576047497</ele>
        <time>2019-01-24T09:54:52.990Z</time>
      </trkpt>
      <trkpt lat="42.12397" lon="2.41618">
        <ele>646.23895727919</ele>
        <time>2019-01-24T09:54:57.991Z</time>
      </trkpt>
      <trkpt lat="42.12388" lon="2.4162">
        <ele>644.56170746331</ele>
        <time>2019-01-24T09:55:01.990Z</time>
      </trkpt>
      <trkpt lat="42.12378" lon="2.41618">
        <ele>642.23012640781</ele>
        <time>2019-01-24T09:55:07.988Z</time>
      </trkpt>
      <trkpt lat="42.12369" lon="2.41618">
        <ele>640.94598007688</ele>
        <time>2019-01-24T09:55:11.988Z</time>
      </trkpt>
      <trkpt lat="42.12359" lon="2.41621">
        <ele>640.01783289545</ele>
        <time>2019-01-24T09:55:14.989Z</time>
      </trkpt>
      <trkpt lat="42.12349" lon="2.41625">
        <ele>639.08968967278</ele>
        <time>2019-01-24T09:55:17.990Z</time>
      </trkpt>
      <trkpt lat="42.12339" lon="2.41624">
        <ele>637.61120711464</ele>
        <time>2019-01-24T09:55:22.988Z</time>
      </trkpt>
      <trkpt lat="42.1233" lon="2.41627">
        <ele>636.4277278042</ele>
        <time>2019-01-24T09:55:27.000Z</time>
      </trkpt>
      <trkpt lat="42.12321" lon="2.41632">
        <ele>635.7802619637</ele>
        <time>2019-01-24T09:55:28.990Z</time>
      </trkpt>
      <trkpt lat="42.12312" lon="2.4163">
        <ele>634.55950956354</ele>
        <time>2019-01-24T09:55:31.990Z</time>
      </trkpt>
      <trkpt lat="42.12303" lon="2.41632">
        <ele>633.74608089649</ele>
        <time>2019-01-24T09:55:33.989Z</time>
      </trkpt>
      <trkpt lat="42.12294" lon="2.41633">
        <ele>632.52532849633</ele>
        <time>2019-01-24T09:55:36.989Z</time>
      </trkpt>
      <trkpt lat="42.12284" lon="2.41631">
        <ele>631.62930048</ele>
        <time>2019-01-24T09:55:41.987Z</time>
      </trkpt>
      <trkpt lat="42.12275" lon="2.41636">
        <ele>631.02790016</ele>
        <time>2019-01-24T09:55:48.001Z</time>
      </trkpt>
      <trkpt lat="42.12267" lon="2.41644">
        <ele>629.88811057362</ele>
        <time>2019-01-24T09:55:51.990Z</time>
      </trkpt>
      <trkpt lat="42.12258" lon="2.41649">
        <ele>628.68930899159</ele>
        <time>2019-01-24T09:55:55.990Z</time>
      </trkpt>
      <trkpt lat="42.12248" lon="2.41655">
        <ele>627.72982911557</ele>
        <time>2019-01-24T09:56:00.989Z</time>
      </trkpt>
      <trkpt lat="42.12239" lon="2.41662">
        <ele>627.02832783877</ele>
        <time>2019-01-24T09:56:07.997Z</time>
      </trkpt>
      <trkpt lat="42.1223" lon="2.4167">
        <ele>626.63287215343</ele>
        <time>2019-01-24T09:56:11.988Z</time>
      </trkpt>
      <trkpt lat="42.12221" lon="2.4168">
        <ele>626.03772322362</ele>
        <time>2019-01-24T09:56:17.999Z</time>
      </trkpt>
      <trkpt lat="42.12214" lon="2.41688">
        <ele>625.27070724571</ele>
        <time>2019-01-24T09:56:21.990Z</time>
      </trkpt>
      <trkpt lat="42.12207" lon="2.41698">
        <ele>624.46242421813</ele>
        <time>2019-01-24T09:56:25.991Z</time>
      </trkpt>
      <trkpt lat="42.12199" lon="2.41708">
        <ele>622.97339904</ele>
        <time>2019-01-24T09:56:29.991Z</time>
      </trkpt>
      <trkpt lat="42.12193" lon="2.41718">
        <ele>620.57459712</ele>
        <time>2019-01-24T09:56:33.989Z</time>
      </trkpt>
      <trkpt lat="42.12185" lon="2.41725">
        <ele>618.168</ele>
        <time>2019-01-24T09:56:38.000Z</time>
      </trkpt>
      <trkpt lat="42.12178" lon="2.41733">
        <ele>616.88952023025</ele>
        <time>2019-01-24T09:56:41.989Z</time>
      </trkpt>
      <trkpt lat="42.12172" lon="2.41746">
        <ele>615.69191620476</ele>
        <time>2019-01-24T09:56:45.989Z</time>
      </trkpt>
      <trkpt lat="42.12163" lon="2.41757">
        <ele>614.15465464311</ele>
        <time>2019-01-24T09:56:49.989Z</time>
      </trkpt>
      <trkpt lat="42.12157" lon="2.41766">
        <ele>612.64764859033</ele>
        <time>2019-01-24T09:56:53.000Z</time>
      </trkpt>
      <trkpt lat="42.12148" lon="2.41774">
        <ele>610.65114777287</ele>
        <time>2019-01-24T09:56:56.989Z</time>
      </trkpt>
      <trkpt lat="42.1214" lon="2.41782">
        <ele>609.18888770726</ele>
        <time>2019-01-24T09:57:00.991Z</time>
      </trkpt>
      <trkpt lat="42.12134" lon="2.41795">
        <ele>607.68798632617</ele>
        <time>2019-01-24T09:57:05.989Z</time>
      </trkpt>
      <trkpt lat="42.12131" lon="2.4181">
        <ele>605.89832146837</ele>
        <time>2019-01-24T09:57:12.000Z</time>
      </trkpt>
      <trkpt lat="42.12126" lon="2.41823">
        <ele>604.42082698387</ele>
        <time>2019-01-24T09:57:16.989Z</time>
      </trkpt>
      <trkpt lat="42.12124" lon="2.41837">
        <ele>602.9088139708</ele>
        <time>2019-01-24T09:57:22.000Z</time>
      </trkpt>
      <trkpt lat="42.12127" lon="2.41852">
        <ele>601.6933123588</ele>
        <time>2019-01-24T09:57:25.999Z</time>
      </trkpt>
      <trkpt lat="42.12126" lon="2.41867">
        <ele>601</ele>
        <time>2019-01-24T09:57:29.989Z</time>
      </trkpt>
      <trkpt lat="42.12127" lon="2.41881">
        <ele>601</ele>
        <time>2019-01-24T09:57:34.989Z</time>
      </trkpt>
    </trkseg>
  </trk>
</gpx>